SR-198 : Just West of SR-99 Atmospheric Data: 09/21/2021 Summary  Detailed Graphs  Station List

  Temperature     Wind Precipitation Visibility
Timestamp Air Wet
Bulb
Dew-
point
24-hr
Max
24-hr
Min
Relative
Humidity
Atmospheric
Pressure
Avg
Speed
Avg
Dir
Spot
Speed
Spot
Dir
Max
Speed
Max
Dir
  Rate Situation Start End 1 hr 3 hr 6 hr 12 hr 24 hr   Situation
Date Time °F °F °F °F °F % in Hg mph ° mph ° mph ° Y/N in/hr text Date Time Date Time in in in in in mi text
09/21/2021 12:00 AM 68.36 59.72 54.14 85.82 51.62 60.0 32.46 2.91 E 2.68 E 6.49 E No 0.000 No Precipitation 09/09/2021 01:21 PM 09/09/2021 01:26 PM 0.000 0.000 0.000 0.000 0.000 1.24 Clear
09/21/2021 12:01 AM 68.36 60.08 54.68 85.82 51.62 61.0 32.46 2.68 E 1.57 E 6.49 E No 0.000 No Precipitation 09/09/2021 01:21 PM 09/09/2021 01:26 PM 0.000 0.000 0.000 0.000 0.000 1.24 Clear
09/21/2021 12:02 AM 68.36 59.54 53.60 85.82 51.62 59.0 32.46 2.24 E 2.01 SE 6.49 E No 0.000 No Precipitation 09/09/2021 01:21 PM 09/09/2021 01:26 PM 0.000 0.000 0.000 0.000 0.000 1.24 Clear
09/21/2021 12:03 AM 68.36 59.90 54.32 85.82 51.62 61.0 32.46 2.01 E 2.46 E 6.49 E No 0.000 No Precipitation 09/09/2021 01:21 PM 09/09/2021 01:26 PM 0.000 0.000 0.000 0.000 0.000 1.24 Clear
09/21/2021 12:04 AM 68.18 60.26 55.04 85.82 51.62 63.0 32.46 2.46 E 3.58 E 6.49 E No 0.000 No Precipitation 09/09/2021 01:21 PM 09/09/2021 01:26 PM 0.000 0.000 0.000 0.000 0.000 1.24 Clear
09/21/2021 12:05 AM 68.36 60.26 55.22 85.82 51.62 63.0 32.46 3.13 E 3.13 E 6.49 E No 0.000 No Precipitation 09/09/2021 01:21 PM 09/09/2021 01:26 PM 0.000 0.000 0.000 0.000 0.000 1.24 Clear
09/21/2021 12:06 AM 68.36 60.26 55.04 85.82 51.62 62.0 32.46 3.36 E 3.36 E 5.82 E No 0.000 No Precipitation 09/09/2021 01:21 PM 09/09/2021 01:26 PM 0.000 0.000 0.000 0.000 0.000 1.24 Clear
09/21/2021 12:07 AM 68.72 60.44 55.22 85.82 51.62 62.0 32.46 3.58 E 3.80 E 4.25 SE No 0.000 No Precipitation 09/09/2021 01:21 PM 09/09/2021 01:26 PM 0.000 0.000 0.000 0.000 0.000 1.24 Clear
09/21/2021 12:08 AM 68.72 60.44 55.22 85.82 51.62 62.0 32.46 3.58 E 3.36 E 4.25 SE No 0.000 No Precipitation 09/09/2021 01:21 PM 09/09/2021 01:26 PM 0.000 0.000 0.000 0.000 0.000 1.24 Clear
09/21/2021 12:09 AM 68.72 60.44 55.22 85.82 51.62 62.0 32.46 3.13 E 2.68 E 4.25 SE No 0.000 No Precipitation 09/09/2021 01:21 PM 09/09/2021 01:26 PM 0.000 0.000 0.000 0.000 0.000 1.24 Clear
09/21/2021 12:10 AM 68.72 60.44 55.22 85.82 51.62 62.0 32.46 2.91 E 2.91 E 4.25 SE No 0.000 No Precipitation 09/09/2021 01:21 PM 09/09/2021 01:26 PM 0.000 0.000 0.000 0.000 0.000 1.24 Clear
09/21/2021 12:11 AM 68.72 60.44 55.22 85.82 51.62 62.0 32.46 2.91 E 3.36 E 4.25 SE No 0.000 No Precipitation 09/09/2021 01:21 PM 09/09/2021 01:26 PM 0.000 0.000 0.000 0.000 0.000 1.24 Clear
09/21/2021 12:12 AM 68.36 60.44 55.22 85.82 51.62 63.0 32.46 3.36 E 4.25 E 4.25 E No 0.000 No Precipitation 09/09/2021 01:21 PM 09/09/2021 01:26 PM 0.000 0.000 0.000 0.000 0.000 1.24 Clear
09/21/2021 12:13 AM 68.18 60.44 55.40 85.82 51.62 63.0 32.46 4.03 E 3.80 E 4.47 E No 0.000 No Precipitation 09/09/2021 01:21 PM 09/09/2021 01:26 PM 0.000 0.000 0.000 0.000 0.000 1.24 Clear
09/21/2021 12:14 AM 68.18 60.44 55.40 85.82 51.62 63.0 32.46 4.03 E 4.03 E 4.92 E No 0.000 No Precipitation 09/09/2021 01:21 PM 09/09/2021 01:26 PM 0.000 0.000 0.000 0.000 0.000 1.24 Clear
09/21/2021 12:15 AM 68.36 60.44 55.40 85.82 51.62 63.0 32.46 4.03 E 4.03 E 4.92 E No 0.000 No Precipitation 09/09/2021 01:21 PM 09/09/2021 01:26 PM 0.000 0.000 0.000 0.000 0.000 1.24 Clear
09/21/2021 12:16 AM 68.54 60.44 55.40 85.82 51.62 62.0 32.46 3.80 E 3.13 E 4.92 E No 0.000 No Precipitation 09/09/2021 01:21 PM 09/09/2021 01:26 PM 0.000 0.000 0.000 0.000 0.000 1.24 Clear
09/21/2021 12:17 AM 68.54 60.44 55.40 85.82 51.62 62.0 32.46 3.58 E 3.80 E 4.92 E No 0.000 No Precipitation 09/09/2021 01:21 PM 09/09/2021 01:26 PM 0.000 0.000 0.000 0.000 0.000 1.24 Clear
09/21/2021 12:18 AM 68.72 60.62 55.40 85.82 51.62 62.0 32.46 3.58 E 3.58 E 4.92 E No 0.000 No Precipitation 09/09/2021 01:21 PM 09/09/2021 01:26 PM 0.000 0.000 0.000 0.000 0.000 1.24 Clear
09/21/2021 12:19 AM 68.72 60.62 55.40 85.82 51.62 62.0 32.46 3.80 E 3.13 E 4.92 E No 0.000 No Precipitation 09/09/2021 01:21 PM 09/09/2021 01:26 PM 0.000 0.000 0.000 0.000 0.000 1.24 Clear
09/21/2021 12:20 AM 68.72 60.62 55.22 85.82 51.62 62.0 32.46 3.58 E 3.58 E 4.92 E No 0.000 No Precipitation 09/09/2021 01:21 PM 09/09/2021 01:26 PM 0.000 0.000 0.000 0.000 0.000 1.24 Clear
09/21/2021 12:21 AM 68.72 60.62 55.22 85.82 51.62 62.0 32.46 3.58 E 3.80 E 4.92 E No 0.000 No Precipitation 09/09/2021 01:21 PM 09/09/2021 01:26 PM 0.000 0.000 0.000 0.000 0.000 1.24 Clear
09/21/2021 12:22 AM 68.54 60.44 55.40 85.82 51.62 62.0 32.46 3.36 E 3.36 E 4.92 E No 0.000 No Precipitation 09/09/2021 01:21 PM 09/09/2021 01:26 PM 0.000 0.000 0.000 0.000 0.000 1.24 Clear
09/21/2021 12:23 AM 68.36 60.44 55.22 85.82 51.62 63.0 32.46 3.36 E 3.58 E 4.92 E No 0.000 No Precipitation 09/09/2021 01:21 PM 09/09/2021 01:26 PM 0.000 0.000 0.000 0.000 0.000 1.24 Clear
09/21/2021 12:24 AM 68.36 60.26 55.22 85.82 51.62 63.0 32.46 3.80 E 4.70 E 5.37 E No 0.000 No Precipitation 09/09/2021 01:21 PM 09/09/2021 01:26 PM 0.000 0.000 0.000 0.000 0.000 1.24 Clear
09/21/2021 12:25 AM 68.18 60.26 55.22 85.82 51.62 63.0 32.46 4.70 E 5.37 E 6.04 E No 0.000 No Precipitation 09/09/2021 01:21 PM 09/09/2021 01:26 PM 0.000 0.000 0.000 0.000 0.000 1.24 Clear
09/21/2021 12:26 AM 67.82 59.90 54.68 85.82 51.62 62.0 32.46 5.59 E 6.26 E 6.26 E No 0.000 No Precipitation 09/09/2021 01:21 PM 09/09/2021 01:26 PM 0.000 0.000 0.000 0.000 0.000 1.24 Clear
09/21/2021 12:27 AM 67.82 59.90 54.68 85.82 51.62 62.0 32.46 6.04 E 6.49 E 7.16 E No 0.000 No Precipitation 09/09/2021 01:21 PM 09/09/2021 01:26 PM 0.000 0.000 0.000 0.000 0.000 1.24 Clear
09/21/2021 12:28 AM 67.64 59.54 53.96 85.82 51.62 61.0 32.46 6.26 E 5.82 E 7.16 E No 0.000 No Precipitation 09/09/2021 01:21 PM 09/09/2021 01:26 PM 0.000 0.000 0.000 0.000 0.000 1.24 Clear
09/21/2021 12:29 AM 67.64 59.72 54.68 85.82 51.62 63.0 32.46 5.59 E 4.25 E 7.16 E No 0.000 No Precipitation 09/09/2021 01:21 PM 09/09/2021 01:26 PM 0.000 0.000 0.000 0.000 0.000 1.24 Clear
09/21/2021 12:30 AM 67.82 59.90 54.86 85.82 51.62 63.0 32.46 4.47 E 2.91 E 7.16 E No 0.000 No Precipitation 09/09/2021 01:21 PM 09/09/2021 01:26 PM 0.000 0.000 0.000 0.000 0.000 1.24 Clear
09/21/2021 12:31 AM 68.00 59.90 54.68 85.82 51.62 62.0 32.46 3.80 E 4.47 E 7.16 E No 0.000 No Precipitation 09/09/2021 01:21 PM 09/09/2021 01:26 PM 0.000 0.000 0.000 0.000 0.000 1.24 Clear
09/21/2021 12:32 AM 68.00 59.72 54.14 85.82 51.62 61.0 32.46 3.80 E 4.25 E 7.16 E No 0.000 No Precipitation 09/09/2021 01:21 PM 09/09/2021 01:26 PM 0.000 0.000 0.000 0.000 0.000 1.24 Clear
09/21/2021 12:33 AM 67.82 59.90 54.68 85.82 51.62 62.0 32.46 4.47 E 4.70 E 7.16 E No 0.000 No Precipitation 09/09/2021 01:21 PM 09/09/2021 01:26 PM 0.000 0.000 0.000 0.000 0.000 1.24 Clear
09/21/2021 12:34 AM 68.00 59.90 54.68 85.82 51.62 62.0 32.46 4.70 E 4.47 E 7.16 E No 0.000 No Precipitation 09/09/2021 01:21 PM 09/09/2021 01:26 PM 0.000 0.000 0.000 0.000 0.000 1.24 Clear
09/21/2021 12:35 AM 68.36 60.08 54.68 85.82 51.62 61.0 32.46 4.70 E 5.59 E 7.16 E No 0.000 No Precipitation 09/09/2021 01:21 PM 09/09/2021 01:26 PM 0.000 0.000 0.000 0.000 0.000 1.24 Clear
09/21/2021 12:36 AM 68.36 60.08 54.68 85.82 51.62 61.0 32.46 5.14 E 6.04 E 7.16 E No 0.000 No Precipitation 09/09/2021 01:21 PM 09/09/2021 01:26 PM 0.000 0.000 0.000 0.000 0.000 1.24 Clear
09/21/2021 12:37 AM 68.36 60.08 54.68 85.82 51.62 61.0 32.46 5.37 E 5.37 E 6.26 E No 0.000 No Precipitation 09/09/2021 01:21 PM 09/09/2021 01:26 PM 0.000 0.000 0.000 0.000 0.000 1.24 Clear
09/21/2021 12:38 AM 68.36 60.08 54.68 85.82 51.62 62.0 32.46 5.14 E 4.25 SE 6.26 E No 0.000 No Precipitation 09/09/2021 01:21 PM 09/09/2021 01:26 PM 0.000 0.000 0.000 0.000 0.000 1.24 Clear
09/21/2021 12:39 AM 68.18 60.08 54.68 85.82 51.62 62.0 32.46 4.70 SE 3.80 SE 6.26 E No 0.000 No Precipitation 09/09/2021 01:21 PM 09/09/2021 01:26 PM 0.000 0.000 0.000 0.000 0.000 1.24 Clear
09/21/2021 12:40 AM 68.00 59.90 54.68 85.82 51.62 62.0 32.46 3.80 SE 3.13 E 6.26 E No 0.000 No Precipitation 09/09/2021 01:21 PM 09/09/2021 01:26 PM 0.000 0.000 0.000 0.000 0.000 1.24 Clear
09/21/2021 12:41 AM 67.82 59.72 54.50 85.82 51.62 62.0 32.46 3.36 SE 3.58 SE 6.26 E No 0.000 No Precipitation 09/09/2021 01:21 PM 09/09/2021 01:26 PM 0.000 0.000 0.000 0.000 0.000 1.24 Clear
09/21/2021 12:42 AM 67.64 59.90 54.86 85.82 51.62 63.0 32.46 3.36 SE 2.91 SE 6.26 E No 0.000 No Precipitation 09/09/2021 01:21 PM 09/09/2021 01:26 PM 0.000 0.000 0.000 0.000 0.000 1.24 Clear
09/21/2021 12:43 AM 67.46 59.90 54.86 85.82 51.62 64.0 32.46 3.13 SE 2.91 SE 6.26 E No 0.000 No Precipitation 09/09/2021 01:21 PM 09/09/2021 01:26 PM 0.000 0.000 0.000 0.000 0.000 1.24 Clear
09/21/2021 12:44 AM 67.28 59.54 54.32 85.82 51.62 63.0 32.46 2.68 SE 2.91 E 6.26 E No 0.000 No Precipitation 09/09/2021 01:21 PM 09/09/2021 01:26 PM 0.000 0.000 0.000 0.000 0.000 1.24 Clear
09/21/2021 12:45 AM 67.10 59.54 54.32 85.82 51.62 63.0 32.46 2.46 SE 1.57 E 6.26 E No 0.000 No Precipitation 09/09/2021 01:21 PM 09/09/2021 01:26 PM 0.000 0.000 0.000 0.000 0.000 1.24 Clear
09/21/2021 12:46 AM 66.92 59.36 54.32 85.82 51.62 63.0 32.46 2.24 SE 2.46 E 6.26 E No 0.000 No Precipitation 09/09/2021 01:21 PM 09/09/2021 01:26 PM 0.000 0.000 0.000 0.000 0.000 1.24 Clear
09/21/2021 12:47 AM 66.74 59.18 54.14 85.82 51.62 64.0 32.46 2.46 SE 2.68 E 5.59 E No 0.000 No Precipitation 09/09/2021 01:21 PM 09/09/2021 01:26 PM 0.000 0.000 0.000 0.000 0.000 1.24 Clear
09/21/2021 12:48 AM 66.74 59.18 54.32 85.82 51.62 64.0 32.46 2.46 SE 1.57 E 4.92 E No 0.000 No Precipitation 09/09/2021 01:21 PM 09/09/2021 01:26 PM 0.000 0.000 0.000 0.000 0.000 1.24 Clear
09/21/2021 12:49 AM 66.74 59.36 54.68 85.82 51.62 65.0 32.46 2.68 E 3.36 E 4.25 SE No 0.000 No Precipitation 09/09/2021 01:21 PM 09/09/2021 01:26 PM 0.000 0.000 0.000 0.000 0.000 1.24 Clear
09/21/2021 12:50 AM 66.74 59.54 54.68 85.82 51.62 65.0 32.46 3.13 E 4.25 E 4.70 SE No 0.000 No Precipitation 09/09/2021 01:21 PM 09/09/2021 01:26 PM 0.000 0.000 0.000 0.000 0.000 1.24 Clear
09/21/2021 12:51 AM 66.74 59.36 54.68 85.82 51.62 65.0 32.46 3.58 SE 3.13 E 4.70 SE No 0.000 No Precipitation 09/09/2021 01:21 PM 09/09/2021 01:26 PM 0.000 0.000 0.000 0.000 0.000 1.24 Clear
09/21/2021 12:52 AM 66.74 59.54 54.68 85.82 51.62 65.0 32.46 3.58 SE 2.91 E 4.70 SE No 0.000 No Precipitation 09/09/2021 01:21 PM 09/09/2021 01:26 PM 0.000 0.000 0.000 0.000 0.000 1.24 Clear
09/21/2021 12:53 AM 66.74 59.54 54.86 85.82 51.62 65.0 32.46 3.36 SE 4.47 E 4.70 SE No 0.000 No Precipitation 09/09/2021 01:21 PM 09/09/2021 01:26 PM 0.000 0.000 0.000 0.000 0.000 1.24 Clear
09/21/2021 12:54 AM 66.74 59.54 54.86 85.82 51.62 65.0 32.46 3.13 SE 3.36 SE 4.70 SE No 0.000 No Precipitation 09/09/2021 01:21 PM 09/09/2021 01:26 PM 0.000 0.000 0.000 0.000 0.000 1.24 Clear
09/21/2021 12:55 AM 66.74 59.54 54.86 85.82 51.62 66.0 32.46 3.36 SE 2.91 SE 4.70 SE No 0.000 No Precipitation 09/09/2021 01:21 PM 09/09/2021 01:26 PM 0.000 0.000 0.000 0.000 0.000 1.24 Clear
09/21/2021 12:56 AM 66.74 59.54 54.86 85.82 51.62 65.0 32.46 3.36 SE 3.58 SE 4.70 SE No 0.000 No Precipitation 09/09/2021 01:21 PM 09/09/2021 01:26 PM 0.000 0.000 0.000 0.000 0.000 1.24 Clear
09/21/2021 12:57 AM 66.74 59.54 54.86 85.82 51.62 65.0 32.46 3.58 SE 3.80 SE 4.70 SE No 0.000 No Precipitation 09/09/2021 01:21 PM 09/09/2021 01:26 PM 0.000 0.000 0.000 0.000 0.000 1.24 Clear
09/21/2021 12:58 AM 66.74 59.54 54.86 85.82 51.62 65.0 32.46 3.58 SE 3.80 SE 4.70 SE No 0.000 No Precipitation 09/09/2021 01:21 PM 09/09/2021 01:26 PM 0.000 0.000 0.000 0.000 0.000 1.24 Clear
09/21/2021 12:59 AM 66.74 59.54 54.68 85.82 51.62 65.0 32.46 3.58 SE 3.58 SE 4.70 SE No 0.000 No Precipitation 09/09/2021 01:21 PM 09/09/2021 01:26 PM 0.000 0.000 0.000 0.000 0.000 1.24 Clear
09/21/2021 01:00 AM 66.56 59.36 54.68 85.82 51.62 65.0 32.46 3.58 SE 4.25 SE 4.47 E No 0.000 No Precipitation 09/09/2021 01:21 PM 09/09/2021 01:26 PM 0.000 0.000 0.000 0.000 0.000 1.24 Clear
09/21/2021 01:01 AM 66.56 59.36 54.68 85.82 51.62 65.0 32.46 4.03 SE 4.47 SE 4.70 SE No 0.000 No Precipitation 09/09/2021 01:21 PM 09/09/2021 01:26 PM 0.000 0.000 0.000 0.000 0.000 1.24 Clear
09/21/2021 01:02 AM 66.38 59.36 54.50 85.82 51.62 65.0 32.46 4.25 SE 4.03 SE 4.70 SE No 0.000 No Precipitation 09/09/2021 01:21 PM 09/09/2021 01:26 PM 0.000 0.000 0.000 0.000 0.000 1.24 Clear
09/21/2021 01:03 AM 66.38 59.36 54.68 85.82 51.62 66.0 32.46 4.25 SE 4.47 SE 5.14 SE No 0.000 No Precipitation 09/09/2021 01:21 PM 09/09/2021 01:26 PM 0.000 0.000 0.000 0.000 0.000 1.24 Clear
09/21/2021 01:04 AM 66.20 59.36 54.86 85.82 51.62 66.0 32.46 4.47 SE 4.70 SE 5.14 SE No 0.000 No Precipitation 09/09/2021 01:21 PM 09/09/2021 01:26 PM 0.000 0.000 0.000 0.000 0.000 1.24 Clear
09/21/2021 01:05 AM 66.20 59.18 54.68 85.82 51.62 66.0 32.46 4.70 SE 5.14 SE 5.37 SE No 0.000 No Precipitation 09/09/2021 01:21 PM 09/09/2021 01:26 PM 0.000 0.000 0.000 0.000 0.000 1.24 Clear
09/21/2021 01:06 AM 66.02 59.18 54.68 85.82 51.62 67.0 32.46 4.92 SE 4.70 SE 5.37 SE No 0.000 No Precipitation 09/09/2021 01:21 PM 09/09/2021 01:26 PM 0.000 0.000 0.000 0.000 0.000 1.24 Clear
09/21/2021 01:07 AM 66.02 59.36 54.86 85.82 51.62 67.0 32.46 4.70 SE 4.47 SE 5.37 SE No 0.000 No Precipitation 09/09/2021 01:21 PM 09/09/2021 01:26 PM 0.000 0.000 0.000 0.000 0.000 1.24 Clear
09/21/2021 01:08 AM 65.84 59.18 54.86 85.82 51.62 67.0 32.46 4.47 E 4.03 E 5.37 SE No 0.000 No Precipitation 09/09/2021 01:21 PM 09/09/2021 01:26 PM 0.000 0.000 0.000 0.000 0.000 1.24 Clear
09/21/2021 01:09 AM 65.84 59.18 54.86 85.82 51.62 67.0 32.46 4.03 E 3.58 E 5.37 SE No 0.000 No Precipitation 09/09/2021 01:21 PM 09/09/2021 01:26 PM 0.000 0.000 0.000 0.000 0.000 1.24 Clear
09/21/2021 01:10 AM 65.84 59.18 54.86 85.82 51.62 67.0 32.46 4.03 E 3.80 SE 5.37 SE No 0.000 No Precipitation 09/09/2021 01:21 PM 09/09/2021 01:26 PM 0.000 0.000 0.000 0.000 0.000 1.24 Clear
09/21/2021 01:11 AM 66.02 59.18 54.68 85.82 51.62 67.0 32.46 4.03 SE 3.80 SE 5.37 SE No 0.000 No Precipitation 09/09/2021 01:21 PM 09/09/2021 01:26 PM 0.000 0.000 0.000 0.000 0.000 1.24 Clear
09/21/2021 01:12 AM 66.20 59.18 54.68 85.82 51.62 66.0 32.46 4.25 SE 4.70 SE 5.37 SE No 0.000 No Precipitation 09/09/2021 01:21 PM 09/09/2021 01:26 PM 0.000 0.000 0.000 0.000 0.000 1.24 Clear
09/21/2021 01:13 AM 66.38 59.36 54.68 85.82 51.62 66.0 32.46 4.25 SE 4.47 SE 5.37 SE No 0.000 No Precipitation 09/09/2021 01:21 PM 09/09/2021 01:26 PM 0.000 0.000 0.000 0.000 0.000 1.24 Clear
09/21/2021 01:14 AM 66.56 59.36 54.68 85.82 51.62 65.0 32.46 4.47 SE 5.14 SE 5.37 SE No 0.000 No Precipitation 09/09/2021 01:21 PM 09/09/2021 01:26 PM 0.000 0.000 0.000 0.000 0.000 1.24 Clear
09/21/2021 01:15 AM 66.56 59.36 54.68 85.82 51.62 65.0 32.46 4.70 SE 4.03 E 5.14 SE No 0.000 No Precipitation 09/09/2021 01:21 PM 09/09/2021 01:26 PM 0.000 0.000 0.000 0.000 0.000 1.24 Clear
09/21/2021 01:16 AM 66.38 59.18 54.32 85.82 51.62 65.0 32.46 4.03 SE 3.80 SE 5.14 SE No 0.000 No Precipitation 09/09/2021 01:21 PM 09/09/2021 01:26 PM 0.000 0.000 0.000 0.000 0.000 1.24 Clear
09/21/2021 01:17 AM 66.38 59.18 54.32 85.82 51.62 65.0 32.46 3.58 E 3.36 SE 5.14 SE No 0.000 No Precipitation 09/09/2021 01:21 PM 09/09/2021 01:26 PM 0.000 0.000 0.000 0.000 0.000 1.24 Clear
09/21/2021 01:18 AM 66.20 59.18 54.50 85.82 51.62 65.0 32.46 3.13 E 3.36 E 5.14 SE No 0.000 No Precipitation 09/09/2021 01:21 PM 09/09/2021 01:26 PM 0.000 0.000 0.000 0.000 0.000 1.24 Clear
09/21/2021 01:19 AM 66.20 59.18 54.50 85.82 51.62 66.0 32.46 3.13 E 3.13 SE 5.14 SE No 0.000 No Precipitation 09/09/2021 01:21 PM 09/09/2021 01:26 PM 0.000 0.000 0.000 0.000 0.000 1.24 Clear
09/21/2021 01:20 AM 66.02 59.18 54.68 85.82 51.62 67.0 32.46 3.36 SE 3.80 SE 5.14 SE No 0.000 No Precipitation 09/09/2021 01:21 PM 09/09/2021 01:26 PM 0.000 0.000 0.000 0.000 0.000 1.24 Clear
09/21/2021 01:21 AM 65.84 59.18 54.68 85.82 51.62 67.0 32.46 3.58 SE 4.03 E 5.14 SE No 0.000 No Precipitation 09/09/2021 01:21 PM 09/09/2021 01:26 PM 0.000 0.000 0.000 0.000 0.000 1.24 Clear
09/21/2021 01:22 AM 65.84 59.18 54.68 85.82 51.62 67.0 32.46 3.80 E 3.58 E 5.14 SE No 0.000 No Precipitation 09/09/2021 01:21 PM 09/09/2021 01:26 PM 0.000 0.000 0.000 0.000 0.000 1.24 Clear
09/21/2021 01:23 AM 65.84 59.00 54.50 85.82 51.62 67.0 32.46 3.58 E 3.36 E 5.14 SE No 0.000 No Precipitation 09/09/2021 01:21 PM 09/09/2021 01:26 PM 0.000 0.000 0.000 0.000 0.000 1.24 Clear
09/21/2021 01:24 AM 65.84 59.00 54.50 85.82 51.62 67.0 32.46 3.36 E 2.91 SE 5.14 SE No 0.000 No Precipitation 09/09/2021 01:21 PM 09/09/2021 01:26 PM 0.000 0.000 0.000 0.000 0.000 1.24 Clear
09/21/2021 01:25 AM 65.66 58.82 54.50 85.82 51.62 67.0 32.46 3.13 SE 2.68 SE 4.25 SE No 0.000 No Precipitation 09/09/2021 01:21 PM 09/09/2021 01:26 PM 0.000 0.000 0.000 0.000 0.000 1.24 Clear
09/21/2021 01:26 AM 65.66 58.82 54.50 85.82 51.62 67.0 32.46 2.68 SE 2.24 SE 4.03 E No 0.000 No Precipitation 09/09/2021 01:21 PM 09/09/2021 01:26 PM 0.000 0.000 0.000 0.000 0.000 1.24 Clear
09/21/2021 01:28 AM 65.48 58.82 54.32 85.82 51.62 67.0 32.46 2.68 SE 2.91 S 4.03 S No 0.000 No Precipitation 09/09/2021 01:21 PM 09/09/2021 01:26 PM 0.000 0.000 0.000 0.000 0.000 1.24 Clear
09/21/2021 01:29 AM 65.48 58.82 54.50 85.82 51.62 67.0 32.46 2.91 SE 4.03 SW 4.03 S No 0.000 No Precipitation 09/09/2021 01:21 PM 09/09/2021 01:26 PM 0.000 0.000 0.000 0.000 0.000 1.24 Clear
09/21/2021 01:30 AM 65.30 58.64 54.14 85.82 51.62 67.0 32.46 3.80 SW 4.25 SW 5.37 SW No 0.000 No Precipitation 09/09/2021 01:21 PM 09/09/2021 01:26 PM 0.000 0.000 0.000 0.000 0.000 1.24 Clear
09/21/2021 01:31 AM 64.94 58.46 54.14 85.82 51.62 68.0 32.46 4.03 SW 3.13 SW 5.37 SW No 0.000 No Precipitation 09/09/2021 01:21 PM 09/09/2021 01:26 PM 0.000 0.000 0.000 0.000 0.000 1.24 Clear
09/21/2021 01:32 AM 64.76 58.10 53.60 85.82 51.62 67.0 32.46 3.58 S 3.80 S 5.37 SW No 0.000 No Precipitation 09/09/2021 01:21 PM 09/09/2021 01:26 PM 0.000 0.000 0.000 0.000 0.000 1.24 Clear
09/21/2021 01:33 AM 64.40 57.92 53.60 85.82 51.62 68.0 32.46 3.36 SE 2.91 S 5.37 SW No 0.000 No Precipitation 09/09/2021 01:21 PM 09/09/2021 01:26 PM 0.000 0.000 0.000 0.000 0.000 1.24 Clear
09/21/2021 01:34 AM 64.22 58.28 54.14 85.82 51.62 69.0 32.46 3.13 SE 2.91 SW 5.37 SW No 0.000 No Precipitation 09/09/2021 01:21 PM 09/09/2021 01:26 PM 0.000 0.000 0.000 0.000 0.000 1.24 Clear
09/21/2021 01:35 AM 64.22 58.10 53.78 85.82 51.62 69.0 32.46 2.68 SW 2.68 SW 5.37 SW No 0.000 No Precipitation 09/09/2021 01:21 PM 09/09/2021 01:26 PM 0.000 0.000 0.000 0.000 0.000 1.24 Clear
09/21/2021 01:36 AM 64.04 58.10 54.14 85.82 51.62 70.0 32.46 2.68 SW 2.24 SW 5.37 SW No 0.000 No Precipitation 09/09/2021 01:21 PM 09/09/2021 01:26 PM 0.000 0.000 0.000 0.000 0.000 1.24 Clear
09/21/2021 01:37 AM 63.68 58.28 54.68 85.82 51.62 72.0 32.46 2.68 SW 2.46 SW 5.37 SW No 0.000 No Precipitation 09/09/2021 01:21 PM 09/09/2021 01:26 PM 0.000 0.000 0.000 0.000 0.000 1.24 Clear
09/21/2021 01:38 AM 63.68 58.28 54.68 85.82 51.62 72.0 32.46 2.24 SW 2.01 S 5.37 SW No 0.000 No Precipitation 09/09/2021 01:21 PM 09/09/2021 01:26 PM 0.000 0.000 0.000 0.000 0.000 1.24 Clear
09/21/2021 01:39 AM 63.68 58.28 54.68 85.82 51.62 72.0 32.46 2.01 SE 2.24 SE 5.37 SW No 0.000 No Precipitation 09/09/2021 01:21 PM 09/09/2021 01:26 PM 0.000 0.000 0.000 0.000 0.000 1.24 Clear
09/21/2021 01:40 AM 63.68 58.28 54.50 85.82 51.62 72.0 32.46 2.01 SE 1.79 S 4.03 SW No 0.000 No Precipitation 09/09/2021 01:21 PM 09/09/2021 01:26 PM 0.000 0.000 0.000 0.000 0.000 1.24 Clear
09/21/2021 01:41 AM 63.50 58.28 54.68 85.82 51.62 72.0 32.46 2.01 S 1.79 S 4.03 SE No 0.000 No Precipitation 09/09/2021 01:21 PM 09/09/2021 01:26 PM 0.000 0.000 0.000 0.000 0.000 1.24 Clear
09/21/2021 01:42 AM 63.50 58.28 54.86 85.82 51.62 73.0 32.46 1.57 S 1.34 S 4.03 SE No 0.000 No Precipitation 09/09/2021 01:21 PM 09/09/2021 01:26 PM 0.000 0.000 0.000 0.000 0.000 1.24 Clear
09/21/2021 01:43 AM 63.50 58.28 54.68 85.82 51.62 73.0 32.46 1.34 S 1.34 S 2.91 S No 0.000 No Precipitation 09/09/2021 01:21 PM 09/09/2021 01:26 PM 0.000 0.000 0.000 0.000 0.000 1.24 Clear
09/21/2021 01:44 AM 63.32 58.10 54.50 85.82 51.62 73.0 32.46 1.34 S 1.34 S 2.91 SW No 0.000 No Precipitation 09/09/2021 01:21 PM 09/09/2021 01:26 PM 0.000 0.000 0.000 0.000 0.000 1.24 Clear
09/21/2021 01:45 AM 63.32 58.10 54.68 85.82 51.62 73.0 32.46 1.34 S 1.57 SW 2.91 SW No 0.000 No Precipitation 09/09/2021 01:21 PM 09/09/2021 01:26 PM 0.000 0.000 0.000 0.000 0.000 1.24 Clear
09/21/2021 01:46 AM 63.32 58.28 54.68 85.82 51.62 73.0 32.46 1.57 S 1.57 S 2.68 SW No 0.000 No Precipitation 09/09/2021 01:21 PM 09/09/2021 01:26 PM 0.000 0.000 0.000 0.000 0.000 1.24 Clear
09/21/2021 01:47 AM 63.50 58.28 54.86 85.82 51.62 73.0 32.46 1.79 SW 2.24 S 2.68 SW No 0.000 No Precipitation 09/09/2021 01:21 PM 09/09/2021 01:26 PM 0.000 0.000 0.000 0.000 0.000 1.24 Clear
09/21/2021 01:48 AM 63.50 58.46 55.04 85.82 51.62 74.0 32.46 2.01 S 2.24 SE 2.46 SE No 0.000 No Precipitation 09/09/2021 01:21 PM 09/09/2021 01:26 PM 0.000 0.000 0.000 0.000 0.000 1.24 Clear
09/21/2021 01:49 AM 63.50 58.28 54.86 85.82 51.62 73.0 32.46 2.24 SE 2.01 SE 2.46 SE No 0.000 No Precipitation 09/09/2021 01:21 PM 09/09/2021 01:26 PM 0.000 0.000 0.000 0.000 0.000 1.24 Clear
09/21/2021 01:50 AM 63.32 58.46 55.22 85.82 51.62 75.0 32.46 1.79 SE 1.34 SE 2.46 SE No 0.000 No Precipitation 09/09/2021 01:21 PM 09/09/2021 01:26 PM 0.000 0.000 0.000 0.000 0.000 1.24 Clear
09/21/2021 01:51 AM 63.32 58.46 55.22 85.82 51.62 75.0 32.46 1.34 SE 0.89 SE 2.46 SE No 0.000 No Precipitation 09/09/2021 01:21 PM 09/09/2021 01:26 PM 0.000 0.000 0.000 0.000 0.000 1.24 Clear
09/21/2021 01:52 AM 63.32 58.28 55.04 85.82 51.62 74.0 32.46 0.89 SE 0.67 SE 2.46 SE No 0.000 No Precipitation 09/09/2021 01:21 PM 09/09/2021 01:26 PM 0.000 0.000 0.000 0.000 0.000 1.24 Clear
09/21/2021 01:53 AM 63.32 58.46 55.04 85.82 51.62 74.0 32.46 0.89 SE 1.34 E 2.46 SE No 0.000 No Precipitation 09/09/2021 01:21 PM 09/09/2021 01:26 PM 0.000 0.000 0.000 0.000 0.000 1.24 Clear
09/21/2021 01:54 AM 63.14 58.46 55.22 85.82 51.62 75.0 32.46 1.12 SE 1.79 SE 2.46 SE No 0.000 No Precipitation 09/09/2021 01:21 PM 09/09/2021 01:26 PM 0.000 0.000 0.000 0.000 0.000 1.24 Clear
09/21/2021 01:55 AM 63.32 58.64 55.40 85.82 51.62 75.0 32.46 1.57 SE 1.57 SE 2.46 SE No 0.000 No Precipitation 09/09/2021 01:21 PM 09/09/2021 01:26 PM 0.000 0.000 0.000 0.000 0.000 1.24 Clear
09/21/2021 01:56 AM 63.32 58.64 55.40 85.82 51.62 75.0 32.46 1.34 SE 1.57 S 2.46 SE No 0.000 No Precipitation 09/09/2021 01:21 PM 09/09/2021 01:26 PM 0.000 0.000 0.000 0.000 0.000 1.24 Clear
09/21/2021 01:57 AM 63.32 58.46 55.22 85.82 51.62 75.0 32.46 1.34 S 1.12 S 2.46 SE No 0.000 No Precipitation 09/09/2021 01:21 PM 09/09/2021 01:26 PM 0.000 0.000 0.000 0.000 0.000 1.24 Clear
09/21/2021 01:58 AM 63.32 58.28 54.86 85.82 51.62 74.0 32.46 1.34 S 1.57 S 2.24 SE No 0.000 No Precipitation 09/09/2021 01:21 PM 09/09/2021 01:26 PM 0.000 0.000 0.000 0.000 0.000 1.24 Clear
09/21/2021 01:59 AM 63.14 58.28 55.04 85.82 51.62 75.0 32.46 1.34 S 1.57 SE 2.24 SE No 0.000 No Precipitation 09/09/2021 01:21 PM 09/09/2021 01:26 PM 0.000 0.000 0.000 0.000 0.000 1.24 Clear
09/21/2021 02:00 AM 62.96 58.46 55.40 85.82 51.62 76.0 32.46 1.79 SE 1.79 SE 2.24 SE No 0.000 No Precipitation 09/09/2021 01:21 PM 09/09/2021 01:26 PM 0.000 0.000 0.000 0.000 0.000 1.24 Clear
09/21/2021 02:01 AM 62.96 58.64 55.58 85.82 51.62 76.0 32.46 1.79 SE 2.24 SE 2.24 SE No 0.000 No Precipitation 09/09/2021 01:21 PM 09/09/2021 01:26 PM 0.000 0.000 0.000 0.000 0.000 1.24 Clear
09/21/2021 02:02 AM 63.14 58.46 55.58 85.82 51.62 76.0 32.46 2.01 SE 2.01 SE 2.24 SE No 0.000 No Precipitation 09/09/2021 01:21 PM 09/09/2021 01:26 PM 0.000 0.000 0.000 0.000 0.000 1.24 Clear
09/21/2021 02:03 AM 63.14 58.64 55.40 85.82 51.62 76.0 32.46 2.01 SE 1.79 SE 2.24 SE No 0.000 No Precipitation 09/09/2021 01:21 PM 09/09/2021 01:26 PM 0.000 0.000 0.000 0.000 0.000 1.24 Clear
09/21/2021 02:04 AM 63.32 58.64 55.58 85.82 51.62 76.0 32.46 1.79 SE 1.57 SE 2.24 SE No 0.000 No Precipitation 09/09/2021 01:21 PM 09/09/2021 01:26 PM 0.000 0.000 0.000 0.000 0.000 1.24 Clear
09/21/2021 02:05 AM 63.32 58.82 55.76 85.82 51.62 76.0 32.46 1.57 SE 1.79 SE 2.24 SE No 0.000 No Precipitation 09/09/2021 01:21 PM 09/09/2021 01:26 PM 0.000 0.000 0.000 0.000 0.000 1.24 Clear
09/21/2021 02:06 AM 63.32 58.82 55.94 85.82 51.62 77.0 32.46 1.57 SE 1.79 SE 2.24 SE No 0.000 No Precipitation 09/09/2021 01:21 PM 09/09/2021 01:26 PM 0.000 0.000 0.000 0.000 0.000 1.24 Clear
09/21/2021 02:07 AM 63.14 59.00 56.30 85.82 51.62 78.0 32.46 2.01 SE 2.01 SE 2.24 SE No 0.000 No Precipitation 09/09/2021 01:21 PM 09/09/2021 01:26 PM 0.000 0.000 0.000 0.000 0.000 1.24 Clear
09/21/2021 02:08 AM 63.14 59.18 56.48 85.82 51.62 79.0 32.46 2.24 SE 2.46 SE 2.91 SE No 0.000 No Precipitation 09/09/2021 01:21 PM 09/09/2021 01:26 PM 0.000 0.000 0.000 0.000 0.000 1.24 Clear
09/21/2021 02:09 AM 62.96 59.00 56.48 85.82 51.62 79.0 32.46 2.46 SE 2.46 SE 2.91 SE No 0.000 No Precipitation 09/09/2021 01:21 PM 09/09/2021 01:26 PM 0.000 0.000 0.000 0.000 0.000 1.24 Clear
09/21/2021 02:10 AM 62.96 58.64 55.94 85.82 51.62 78.0 32.46 2.46 SE 2.46 SE 2.91 SE No 0.000 No Precipitation 09/09/2021 01:21 PM 09/09/2021 01:26 PM 0.000 0.000 0.000 0.000 0.000 1.24 Clear
09/21/2021 02:11 AM 62.78 58.64 55.94 85.82 51.62 78.0 32.46 2.46 SE 2.24 SE 2.91 SE No 0.000 No Precipitation 09/09/2021 01:21 PM 09/09/2021 01:26 PM 0.000 0.000 0.000 0.000 0.000 1.24 Clear
09/21/2021 02:12 AM 62.78 58.64 55.76 85.82 51.62 78.0 32.46 2.46 SE 2.91 SE 2.91 SE No 0.000 No Precipitation 09/09/2021 01:21 PM 09/09/2021 01:26 PM 0.000 0.000 0.000 0.000 0.000 1.24 Clear
09/21/2021 02:13 AM 62.78 58.46 55.58 85.82 51.62 77.0 32.46 2.68 SE 3.13 SE 2.91 SE No 0.000 No Precipitation 09/09/2021 01:21 PM 09/09/2021 01:26 PM 0.000 0.000 0.000 0.000 0.000 1.24 Clear
09/21/2021 02:14 AM 62.78 58.28 55.04 85.82 51.62 76.0 32.46 3.13 SE 3.36 SE 3.36 SE No 0.000 No Precipitation 09/09/2021 01:21 PM 09/09/2021 01:26 PM 0.000 0.000 0.000 0.000 0.000 1.24 Clear
09/21/2021 02:15 AM 62.96 58.46 55.40 85.82 51.62 76.0 32.46 3.13 SE 2.91 SE 3.36 SE No 0.000 No Precipitation 09/09/2021 01:21 PM 09/09/2021 01:26 PM 0.000 0.000 0.000 0.000 0.000 1.24 Clear
09/21/2021 02:16 AM 62.96 58.46 55.40 85.82 51.62 76.0 32.46 2.91 SE 2.68 SE 3.36 SE No 0.000 No Precipitation 09/09/2021 01:21 PM 09/09/2021 01:26 PM 0.000 0.000 0.000 0.000 0.000 1.24 Clear
09/21/2021 02:17 AM 63.14 58.46 55.22 85.82 51.62 75.0 32.46 2.68 SE 2.91 SE 3.36 SE No 0.000 No Precipitation 09/09/2021 01:21 PM 09/09/2021 01:26 PM 0.000 0.000 0.000 0.000 0.000 1.24 Clear
09/21/2021 02:18 AM 63.14 58.28 55.22 85.82 51.62 75.0 32.46 2.68 SE 3.13 SE 3.36 SE No 0.000 No Precipitation 09/09/2021 01:21 PM 09/09/2021 01:26 PM 0.000 0.000 0.000 0.000 0.000 1.24 Clear
09/21/2021 02:19 AM 63.32 58.28 54.86 85.82 51.62 74.0 32.46 3.13 SE 3.36 SE 3.58 SE No 0.000 No Precipitation 09/09/2021 01:21 PM 09/09/2021 01:26 PM 0.000 0.000 0.000 0.000 0.000 1.24 Clear
09/21/2021 02:20 AM 63.32 58.46 55.22 85.82 51.62 74.0 32.46 3.36 SE 3.36 SE 3.58 SE No 0.000 No Precipitation 09/09/2021 01:21 PM 09/09/2021 01:26 PM 0.000 0.000 0.000 0.000 0.000 1.24 Clear
09/21/2021 02:21 AM 63.50 58.46 55.22 85.82 51.62 74.0 32.46 3.13 SE 3.13 SE 3.58 SE No 0.000 No Precipitation 09/09/2021 01:21 PM 09/09/2021 01:26 PM 0.000 0.000 0.000 0.000 0.000 1.24 Clear
09/21/2021 02:22 AM 63.50 58.46 55.22 85.82 51.62 74.0 32.46 2.91 SE 2.91 SE 3.58 SE No 0.000 No Precipitation 09/09/2021 01:21 PM 09/09/2021 01:26 PM 0.000 0.000 0.000 0.000 0.000 1.24 Clear
09/21/2021 02:23 AM 63.50 58.46 55.04 85.82 51.62 73.0 32.46 2.91 SE 2.91 SE 3.58 SE No 0.000 No Precipitation 09/09/2021 01:21 PM 09/09/2021 01:26 PM 0.000 0.000 0.000 0.000 0.000 1.24 Clear
09/21/2021 02:24 AM 63.68 58.46 55.04 85.82 51.62 73.0 32.46 2.91 SE 2.46 SE 3.58 SE No 0.000 No Precipitation 09/09/2021 01:21 PM 09/09/2021 01:26 PM 0.000 0.000 0.000 0.000 0.000 1.24 Clear
09/21/2021 02:25 AM 63.68 58.46 55.04 85.82 51.62 73.0 32.46 2.68 SE 2.46 SE 3.58 SE No 0.000 No Precipitation 09/09/2021 01:21 PM 09/09/2021 01:26 PM 0.000 0.000 0.000 0.000 0.000 1.24 Clear
09/21/2021 02:26 AM 63.68 58.46 54.86 85.82 51.62 73.0 32.46 2.46 SE 2.46 E 3.58 SE No 0.000 No Precipitation 09/09/2021 01:21 PM 09/09/2021 01:26 PM 0.000 0.000 0.000 0.000 0.000 1.24 Clear
09/21/2021 02:27 AM 63.68 58.46 55.04 85.82 51.62 73.0 32.46 2.46 E 2.46 E 3.58 SE No 0.000 No Precipitation 09/09/2021 01:21 PM 09/09/2021 01:26 PM 0.000 0.000 0.000 0.000 0.000 1.24 Clear
09/21/2021 02:28 AM 63.68 58.46 55.04 85.82 51.62 73.0 32.46 2.46 E 2.68 SE 3.58 SE No 0.000 No Precipitation 09/09/2021 01:21 PM 09/09/2021 01:26 PM 0.000 0.000 0.000 0.000 0.000 1.24 Clear
09/21/2021 02:29 AM 63.68 58.46 54.86 85.82 51.62 73.0 32.46 2.46 SE 2.46 SE 3.58 SE No 0.000 No Precipitation 09/09/2021 01:21 PM 09/09/2021 01:26 PM 0.000 0.000 0.000 0.000 0.000 1.24 Clear
09/21/2021 02:30 AM 63.68 58.46 55.04 85.82 51.62 73.0 32.46 2.46 SE 2.68 SE 3.36 SE No 0.000 No Precipitation 09/09/2021 01:21 PM 09/09/2021 01:26 PM 0.000 0.000 0.000 0.000 0.000 1.24 Clear
09/21/2021 02:31 AM 63.50 58.46 55.04 85.82 51.62 73.0 32.46 2.46 SE 2.46 SE 3.13 SE No 0.000 No Precipitation 09/09/2021 01:21 PM 09/09/2021 01:26 PM 0.000 0.000 0.000 0.000 0.000 1.24 Clear
09/21/2021 02:32 AM 63.50 58.28 54.86 85.82 51.62 73.0 32.46 2.46 SE 1.79 E 2.91 SE No 0.000 No Precipitation 09/09/2021 01:21 PM 09/09/2021 01:26 PM 0.000 0.000 0.000 0.000 0.000 1.24 Clear
09/21/2021 02:33 AM 63.32 58.28 54.86 85.82 51.62 73.0 32.46 2.01 SE 1.79 E 2.91 SE No 0.000 No Precipitation 09/09/2021 01:21 PM 09/09/2021 01:26 PM 0.000 0.000 0.000 0.000 0.000 1.24 Clear
09/21/2021 02:34 AM 63.14 58.10 54.86 85.82 51.62 74.0 32.46 1.57 E 1.34 E 2.91 SE No 0.000 No Precipitation 09/09/2021 01:21 PM 09/09/2021 01:26 PM 0.000 0.000 0.000 0.000 0.000 1.24 Clear
09/21/2021 02:35 AM 62.96 58.28 55.04 85.82 51.62 75.0 32.46 1.34 E 1.79 E 2.91 SE No 0.000 No Precipitation 09/09/2021 01:21 PM 09/09/2021 01:26 PM 0.000 0.000 0.000 0.000 0.000 1.24 Clear
09/21/2021 02:36 AM 62.96 58.82 56.12 85.82 51.62 78.0 32.46 1.57 E 1.57 E 2.91 SE No 0.000 No Precipitation 09/09/2021 01:21 PM 09/09/2021 01:26 PM 0.000 0.000 0.000 0.000 0.000 1.24 Clear
09/21/2021 02:37 AM 62.96 59.18 56.66 85.82 51.62 80.0 32.46 1.57 E 1.57 E 2.91 SE No 0.000 No Precipitation 09/09/2021 01:21 PM 09/09/2021 01:26 PM 0.000 0.000 0.000 0.000 0.000 1.24 Clear
09/21/2021 02:38 AM 62.78 59.18 56.84 85.82 51.62 81.0 32.46 1.79 E 1.12 E 2.91 SE No 0.000 No Precipitation 09/09/2021 01:21 PM 09/09/2021 01:26 PM 0.000 0.000 0.000 0.000 0.000 1.24 Clear
09/21/2021 02:39 AM 62.60 59.00 56.48 85.82 51.62 80.0 32.46 1.57 E 1.12 E 2.91 SE No 0.000 No Precipitation 09/09/2021 01:21 PM 09/09/2021 01:26 PM 0.000 0.000 0.000 0.000 0.000 1.24 Clear
09/21/2021 02:40 AM 62.60 58.64 55.94 85.82 51.62 78.0 32.46 1.34 E 1.57 E 2.91 SE No 0.000 No Precipitation 09/09/2021 01:21 PM 09/09/2021 01:26 PM 0.000 0.000 0.000 0.000 0.000 1.24 Clear
09/21/2021 02:41 AM 62.78 59.18 56.84 85.82 51.62 81.0 32.46 1.79 E 2.01 E 2.68 SE No 0.000 No Precipitation 09/09/2021 01:21 PM 09/09/2021 01:26 PM 0.000 0.000 0.000 0.000 0.000 1.24 Clear
09/21/2021 02:42 AM 62.60 59.36 57.20 85.82 51.62 82.0 32.46 2.24 E 2.24 E 2.68 E No 0.000 No Precipitation 09/09/2021 01:21 PM 09/09/2021 01:26 PM 0.000 0.000 0.000 0.000 0.000 1.24 Clear
09/21/2021 02:43 AM 62.42 59.00 56.66 85.82 51.62 81.0 32.46 2.46 E 2.24 E 2.91 E No 0.000 No Precipitation 09/09/2021 01:21 PM 09/09/2021 01:26 PM 0.000 0.000 0.000 0.000 0.000 1.24 Clear
09/21/2021 02:44 AM 62.60 58.82 56.48 85.82 51.62 80.0 32.46 2.24 E 1.57 E 2.91 E No 0.000 No Precipitation 09/09/2021 01:21 PM 09/09/2021 01:26 PM 0.000 0.000 0.000 0.000 0.000 1.24 Clear
09/21/2021 02:45 AM 62.78 59.00 56.48 85.82 51.62 80.0 32.46 1.79 E 1.79 E 2.91 E No 0.000 No Precipitation 09/09/2021 01:21 PM 09/09/2021 01:26 PM 0.000 0.000 0.000 0.000 0.000 1.24 Clear
09/21/2021 02:46 AM 62.78 59.18 57.02 85.82 51.62 81.0 32.46 1.79 E 1.79 E 2.91 E No 0.000 No Precipitation 09/09/2021 01:21 PM 09/09/2021 01:26 PM 0.000 0.000 0.000 0.000 0.000 1.24 Clear
09/21/2021 02:47 AM 62.60 58.82 56.30 85.82 51.62 80.0 32.46 1.79 E 1.79 E 2.91 E No 0.000 No Precipitation 09/09/2021 01:21 PM 09/09/2021 01:26 PM 0.000 0.000 0.000 0.000 0.000 1.24 Clear
09/21/2021 02:48 AM 62.78 58.64 55.76 85.82 51.62 77.0 32.46 1.79 E 3.13 NE 3.13 NE No 0.000 No Precipitation 09/09/2021 01:21 PM 09/09/2021 01:26 PM 0.000 0.000 0.000 0.000 0.000 1.24 Clear
09/21/2021 02:49 AM 63.14 58.64 55.58 85.82 51.62 76.0 32.46 1.79 E 1.57 E 3.13 NE No 0.000 No Precipitation 09/09/2021 01:21 PM 09/09/2021 01:26 PM 0.000 0.000 0.000 0.000 0.000 1.24 Clear
09/21/2021 02:50 AM 63.32 58.64 55.58 85.82 51.62 76.0 32.46 1.57 E 1.57 E 3.13 NE No 0.000 No Precipitation 09/09/2021 01:21 PM 09/09/2021 01:26 PM 0.000 0.000 0.000 0.000 0.000 1.24 Clear
09/21/2021 02:51 AM 63.32 59.00 56.12 85.82 51.62 77.0 32.46 1.57 E 2.01 E 3.13 NE No 0.000 No Precipitation 09/09/2021 01:21 PM 09/09/2021 01:26 PM 0.000 0.000 0.000 0.000 0.000 1.24 Clear
09/21/2021 02:52 AM 63.32 58.64 55.58 85.82 51.62 75.0 32.46 1.79 E 2.01 E 3.13 NE No 0.000 No Precipitation 09/09/2021 01:21 PM 09/09/2021 01:26 PM 0.000 0.000 0.000 0.000 0.000 1.24 Clear
09/21/2021 02:53 AM 63.50 58.64 55.58 85.82 51.62 75.0 32.46 2.01 E 2.68 E 3.13 NE No 0.000 No Precipitation 09/09/2021 01:21 PM 09/09/2021 01:26 PM 0.000 0.000 0.000 0.000 0.000 1.24 Clear
09/21/2021 02:54 AM 63.32 59.00 56.12 85.82 51.62 77.0 32.46 2.46 E 3.13 E 3.36 E No 0.000 No Precipitation 09/09/2021 01:21 PM 09/09/2021 01:26 PM 0.000 0.000 0.000 0.000 0.000 1.24 Clear
09/21/2021 02:55 AM 63.14 58.82 55.94 85.82 51.62 77.0 32.46 2.68 E 2.68 E 3.36 E No 0.000 No Precipitation 09/09/2021 01:21 PM 09/09/2021 01:26 PM 0.000 0.000 0.000 0.000 0.000 1.24 Clear
09/21/2021 02:56 AM 63.14 58.64 55.76 85.82 51.62 77.0 32.46 2.91 E 2.91 E 3.36 E No 0.000 No Precipitation 09/09/2021 01:21 PM 09/09/2021 01:26 PM 0.000 0.000 0.000 0.000 0.000 1.24 Clear
09/21/2021 02:57 AM 63.14 58.82 55.94 85.82 51.62 77.0 32.46 2.91 E 3.13 E 3.36 E No 0.000 No Precipitation 09/09/2021 01:21 PM 09/09/2021 01:26 PM 0.000 0.000 0.000 0.000 0.000 1.24 Clear
09/21/2021 02:58 AM 62.96 59.00 56.30 85.82 51.62 78.0 32.46 3.13 E 2.91 E 3.58 E No 0.000 No Precipitation 09/09/2021 01:21 PM 09/09/2021 01:26 PM 0.000 0.000 0.000 0.000 0.000 1.24 Clear
09/21/2021 02:59 AM 62.78 58.82 56.30 85.82 51.62 79.0 32.46 3.13 E 2.91 E 3.58 E No 0.000 No Precipitation 09/09/2021 01:21 PM 09/09/2021 01:26 PM 0.000 0.000 0.000 0.000 0.000 1.24 Clear
09/21/2021 03:00 AM 62.60 59.00 56.84 85.82 51.62 81.0 32.46 3.13 E 3.36 E 3.58 E No 0.000 No Precipitation 09/09/2021 01:21 PM 09/09/2021 01:26 PM 0.000 0.000 0.000 0.000 0.000 1.24 Clear
09/21/2021 03:01 AM 62.42 58.64 56.30 85.82 51.62 80.0 32.46 3.36 E 3.58 E 3.80 E No 0.000 No Precipitation 09/09/2021 01:21 PM 09/09/2021 01:26 PM 0.000 0.000 0.000 0.000 0.000 1.24 Clear
09/21/2021 03:02 AM 62.42 58.46 55.94 85.82 51.62 79.0 32.46 3.58 E 3.80 E 4.03 E No 0.000 No Precipitation 09/09/2021 01:21 PM 09/09/2021 01:26 PM 0.000 0.000 0.000 0.000 0.000 1.24 Clear
09/21/2021 03:03 AM 62.60 58.82 56.48 85.82 51.62 80.0 32.46 3.80 E 3.80 E 4.25 E No 0.000 No Precipitation 09/09/2021 01:21 PM 09/09/2021 01:26 PM 0.000 0.000 0.000 0.000 0.000 1.24 Clear
09/21/2021 03:04 AM 62.60 58.82 56.30 85.82 51.62 80.0 32.46 3.80 E 3.58 E 4.25 E No 0.000 No Precipitation 09/09/2021 01:21 PM 09/09/2021 01:26 PM 0.000 0.000 0.000 0.000 0.000 1.24 Clear
09/21/2021 03:05 AM 62.60 58.64 56.12 85.82 51.62 79.0 32.46 3.58 E 3.13 E 4.25 E No 0.000 No Precipitation 09/09/2021 01:21 PM 09/09/2021 01:26 PM 0.000 0.000 0.000 0.000 0.000 1.24 Clear
09/21/2021 03:06 AM 62.60 58.64 55.94 85.82 51.62 79.0 32.46 3.13 E 2.46 E 4.25 E No 0.000 No Precipitation 09/09/2021 01:21 PM 09/09/2021 01:26 PM 0.000 0.000 0.000 0.000 0.000 1.24 Clear
09/21/2021 03:07 AM 62.78 58.64 55.76 85.82 51.62 78.0 32.46 2.91 E 2.68 E 4.25 E No 0.000 No Precipitation 09/09/2021 01:21 PM 09/09/2021 01:26 PM 0.000 0.000 0.000 0.000 0.000 1.24 Clear
09/21/2021 03:08 AM 62.78 58.46 55.58 85.82 51.62 77.0 32.46 2.68 E 2.46 E 4.25 E No 0.000 No Precipitation 09/09/2021 01:21 PM 09/09/2021 01:26 PM 0.000 0.000 0.000 0.000 0.000 1.24 Clear
09/21/2021 03:09 AM 62.78 58.64 55.76 85.82 51.62 78.0 32.46 2.91 E 2.91 E 4.25 E No 0.000 No Precipitation 09/09/2021 01:21 PM 09/09/2021 01:26 PM 0.000 0.000 0.000 0.000 0.000 1.24 Clear
09/21/2021 03:10 AM 62.78 58.46 55.58 85.82 51.62 77.0 32.46 3.13 E 3.13 E 4.25 E No 0.000 No Precipitation 09/09/2021 01:21 PM 09/09/2021 01:26 PM 0.000 0.000 0.000 0.000 0.000 1.24 Clear
09/21/2021 03:11 AM 62.78 58.46 55.58 85.82 51.62 77.0 32.46 3.13 E 3.36 E 4.25 E No 0.000 No Precipitation 09/09/2021 01:21 PM 09/09/2021 01:26 PM 0.000 0.000 0.000 0.000 0.000 1.24 Clear
09/21/2021 03:12 AM 62.78 58.82 56.12 85.82 51.62 78.0 32.46 3.13 E 3.58 E 4.25 E No 0.000 No Precipitation 09/09/2021 01:21 PM 09/09/2021 01:26 PM 0.000 0.000 0.000 0.000 0.000 1.24 Clear
09/21/2021 03:13 AM 62.78 58.46 55.76 85.82 51.62 78.0 32.46 3.36 E 3.80 E 4.03 E No 0.000 No Precipitation 09/09/2021 01:21 PM 09/09/2021 01:26 PM 0.000 0.000 0.000 0.000 0.000 1.24 Clear
09/21/2021 03:14 AM 62.60 58.64 55.94 85.82 51.62 79.0 32.46 3.58 E 2.91 E 4.03 E No 0.000 No Precipitation 09/09/2021 01:21 PM 09/09/2021 01:26 PM 0.000 0.000 0.000 0.000 0.000 1.24 Clear
09/21/2021 03:15 AM 62.42 58.46 55.76 85.82 51.62 79.0 32.46 3.13 E 2.46 E 4.03 E No 0.000 No Precipitation 09/09/2021 01:21 PM 09/09/2021 01:26 PM 0.000 0.000 0.000 0.000 0.000 1.24 Clear
09/21/2021 03:16 AM 62.42 58.28 55.58 85.82 51.62 78.0 32.46 2.68 E 2.24 E 4.03 E No 0.000 No Precipitation 09/09/2021 01:21 PM 09/09/2021 01:26 PM 0.000 0.000 0.000 0.000 0.000 1.24 Clear
09/21/2021 03:17 AM 62.42 58.28 55.58 85.82 51.62 78.0 32.46 2.46 E 2.68 E 4.03 E No 0.000 No Precipitation 09/09/2021 01:21 PM 09/09/2021 01:26 PM 0.000 0.000 0.000 0.000 0.000 1.24 Clear
09/21/2021 03:18 AM 62.42 57.92 55.04 85.82 51.62 76.0 32.46 2.68 E 2.68 E 4.03 E No 0.000 No Precipitation 09/09/2021 01:21 PM 09/09/2021 01:26 PM 0.000 0.000 0.000 0.000 0.000 1.24 Clear
09/21/2021 03:19 AM 62.60 57.92 54.86 85.82 51.62 76.0 32.46 2.91 E 3.58 E 4.03 E No 0.000 No Precipitation 09/09/2021 01:21 PM 09/09/2021 01:26 PM 0.000 0.000 0.000 0.000 0.000 1.24 Clear
09/21/2021 03:20 AM 62.60 58.28 55.58 85.82 51.62 78.0 32.46 3.36 E 3.58 E 4.03 E No 0.000 No Precipitation 09/09/2021 01:21 PM 09/09/2021 01:26 PM 0.000 0.000 0.000 0.000 0.000 1.24 Clear
09/21/2021 03:21 AM 62.60 58.46 55.58 85.82 51.62 78.0 32.46 3.80 E 3.80 E 4.25 E No 0.000 No Precipitation 09/09/2021 01:21 PM 09/09/2021 01:26 PM 0.000 0.000 0.000 0.000 0.000 1.24 Clear
09/21/2021 03:22 AM 62.42 58.46 55.76 85.82 51.62 79.0 32.46 3.58 E 2.91 E 4.25 E No 0.000 No Precipitation 09/09/2021 01:21 PM 09/09/2021 01:26 PM 0.000 0.000 0.000 0.000 0.000 1.24 Clear
09/21/2021 03:23 AM 62.42 58.28 55.58 85.82 51.62 78.0 32.46 3.36 E 3.13 E 4.25 E No 0.000 No Precipitation 09/09/2021 01:21 PM 09/09/2021 01:26 PM 0.000 0.000 0.000 0.000 0.000 1.24 Clear
09/21/2021 03:24 AM 62.42 58.10 55.22 85.82 51.62 77.0 32.46 3.13 E 2.68 E 4.25 E No 0.000 No Precipitation 09/09/2021 01:21 PM 09/09/2021 01:26 PM 0.000 0.000 0.000 0.000 0.000 1.24 Clear
09/21/2021 03:25 AM 62.42 58.28 55.40 85.82 51.62 77.0 32.46 2.91 E 2.91 E 4.25 E No 0.000 No Precipitation 09/09/2021 01:21 PM 09/09/2021 01:26 PM 0.000 0.000 0.000 0.000 0.000 1.24 Clear
09/21/2021 03:26 AM 62.42 58.46 55.40 85.82 51.62 79.0 32.46 2.91 E 2.91 E 4.25 E No 0.000 No Precipitation 09/09/2021 01:21 PM 09/09/2021 01:26 PM 0.000 0.000 0.000 0.000 0.000 1.24 Clear
09/21/2021 03:27 AM 62.42 58.46 55.94 85.82 51.62 79.0 32.46 2.68 E 2.46 E 4.25 E No 0.000 No Precipitation 09/09/2021 01:21 PM 09/09/2021 01:26 PM 0.000 0.000 0.000 0.000 0.000 1.24 Clear
09/21/2021 03:28 AM 62.42 58.46 55.76 85.82 51.62 79.0 32.46 2.24 E 1.79 E 4.25 E No 0.000 No Precipitation 09/09/2021 01:21 PM 09/09/2021 01:26 PM 0.000 0.000 0.000 0.000 0.000 1.24 Clear
09/21/2021 03:30 AM 62.42 58.28 55.40 85.82 51.62 78.0 32.46 2.68 E 2.68 NE 4.25 E No 0.000 No Precipitation 09/09/2021 01:21 PM 09/09/2021 01:26 PM 0.000 0.000 0.000 0.000 0.000 1.24 Clear
09/21/2021 03:31 AM 62.42 58.28 55.58 85.82 51.62 78.0 32.46 2.91 E 3.13 E 3.80 E No 0.000 No Precipitation 09/09/2021 01:21 PM 09/09/2021 01:26 PM 0.000 0.000 0.000 0.000 0.000 1.24 Clear
09/21/2021 03:32 AM 62.42 58.28 55.58 85.82 51.62 78.0 32.46 3.13 E 3.36 E 3.58 E No 0.000 No Precipitation 09/09/2021 01:21 PM 09/09/2021 01:26 PM 0.000 0.000 0.000 0.000 0.000 1.24 Clear
09/21/2021 03:33 AM 62.42 58.28 55.40 85.82 51.62 78.0 32.46 3.58 E 4.25 E 4.25 E No 0.000 No Precipitation 09/09/2021 01:21 PM 09/09/2021 01:26 PM 0.000 0.000 0.000 0.000 0.000 1.24 Clear
09/21/2021 03:34 AM 62.42 58.10 55.22 85.82 51.62 77.0 32.46 4.03 E 3.80 E 4.70 E No 0.000 No Precipitation 09/09/2021 01:21 PM 09/09/2021 01:26 PM 0.000 0.000 0.000 0.000 0.000 1.24 Clear
09/21/2021 03:35 AM 62.60 58.10 55.22 85.82 51.62 77.0 32.46 4.25 E 4.25 E 4.70 E No 0.000 No Precipitation 09/09/2021 01:21 PM 09/09/2021 01:26 PM 0.000 0.000 0.000 0.000 0.000 1.24 Clear
09/21/2021 03:36 AM 62.78 58.10 55.04 85.82 51.62 76.0 32.46 4.25 E 4.25 E 4.70 E No 0.000 No Precipitation 09/09/2021 01:21 PM 09/09/2021 01:26 PM 0.000 0.000 0.000 0.000 0.000 1.24 Clear
09/21/2021 03:37 AM 62.96 58.10 54.68 85.82 51.62 74.0 32.46 4.25 E 4.47 NE 4.70 E No 0.000 No Precipitation 09/09/2021 01:21 PM 09/09/2021 01:26 PM 0.000 0.000 0.000 0.000 0.000 1.24 Clear
09/21/2021 03:38 AM 62.96 58.28 55.04 85.82 51.62 75.0 32.46 4.25 E 4.25 NE 4.70 E No 0.000 No Precipitation 09/09/2021 01:21 PM 09/09/2021 01:26 PM 0.000 0.000 0.000 0.000 0.000 1.24 Clear
09/21/2021 03:39 AM 62.60 58.10 55.04 85.82 51.62 76.0 32.46 4.25 NE 4.25 E 4.70 E No 0.000 No Precipitation 09/09/2021 01:21 PM 09/09/2021 01:26 PM 0.000 0.000 0.000 0.000 0.000 1.24 Clear
09/21/2021 03:40 AM 62.60 58.28 55.22 85.82 51.62 76.0 32.46 4.25 E 4.25 NE 4.70 E No 0.000 No Precipitation 09/09/2021 01:21 PM 09/09/2021 01:26 PM 0.000 0.000 0.000 0.000 0.000 1.24 Clear
09/21/2021 03:41 AM 62.60 58.28 55.22 85.82 51.62 77.0 32.46 4.47 E 4.25 E 4.70 E No 0.000 No Precipitation 09/09/2021 01:21 PM 09/09/2021 01:26 PM 0.000 0.000 0.000 0.000 0.000 1.24 Clear
09/21/2021 03:42 AM 62.60 58.10 55.22 85.82 51.62 76.0 32.46 4.47 E 4.70 NE 4.70 E No 0.000 No Precipitation 09/09/2021 01:21 PM 09/09/2021 01:26 PM 0.000 0.000 0.000 0.000 0.000 1.24 Clear
09/21/2021 03:43 AM 62.60 57.92 54.86 85.82 51.62 75.0 32.46 4.70 E 4.92 NE 4.92 NE No 0.000 No Precipitation 09/09/2021 01:21 PM 09/09/2021 01:26 PM 0.000 0.000 0.000 0.000 0.000 1.24 Clear
09/21/2021 03:44 AM 62.78 58.10 55.04 85.82 51.62 75.0 32.46 4.70 NE 4.92 NE 5.14 NE No 0.000 No Precipitation 09/09/2021 01:21 PM 09/09/2021 01:26 PM 0.000 0.000 0.000 0.000 0.000 1.24 Clear
09/21/2021 03:45 AM 62.60 58.10 55.22 85.82 51.62 76.0 32.46 4.92 NE 5.14 E 5.14 NE No 0.000 No Precipitation 09/09/2021 01:21 PM 09/09/2021 01:26 PM 0.000 0.000 0.000 0.000 0.000 1.24 Clear
09/21/2021 03:46 AM 62.42 57.92 54.86 85.82 51.62 76.0 32.46 4.92 NE 4.92 E 5.37 NE No 0.000 No Precipitation 09/09/2021 01:21 PM 09/09/2021 01:26 PM 0.000 0.000 0.000 0.000 0.000 1.24 Clear
09/21/2021 03:47 AM 62.60 57.92 54.68 85.82 51.62 75.0 32.46 5.14 E 5.14 E 5.37 NE No 0.000 No Precipitation 09/09/2021 01:21 PM 09/09/2021 01:26 PM 0.000 0.000 0.000 0.000 0.000 1.24 Clear
09/21/2021 03:48 AM 62.60 57.74 54.32 85.82 51.62 74.0 32.46 5.14 E 5.14 E 5.37 E No 0.000 No Precipitation 09/09/2021 01:21 PM 09/09/2021 01:26 PM 0.000 0.000 0.000 0.000 0.000 1.24 Clear
09/21/2021 03:49 AM 62.96 57.92 54.32 85.82 51.62 73.0 32.46 5.14 E 5.37 E 5.37 E No 0.000 No Precipitation 09/09/2021 01:21 PM 09/09/2021 01:26 PM 0.000 0.000 0.000 0.000 0.000 1.24 Clear
09/21/2021 03:50 AM 63.14 57.92 54.50 85.82 51.62 73.0 32.46 5.14 E 5.14 E 5.37 E No 0.000 No Precipitation 09/09/2021 01:21 PM 09/09/2021 01:26 PM 0.000 0.000 0.000 0.000 0.000 1.24 Clear
09/21/2021 03:51 AM 63.14 57.92 54.32 85.82 51.62 72.0 32.46 5.14 E 5.37 E 5.37 E No 0.000 No Precipitation 09/09/2021 01:21 PM 09/09/2021 01:26 PM 0.000 0.000 0.000 0.000 0.000 1.24 Clear
09/21/2021 03:52 AM 63.32 57.92 54.32 85.82 51.62 72.0 32.46 5.14 E 5.14 E 5.37 E No 0.000 No Precipitation 09/09/2021 01:21 PM 09/09/2021 01:26 PM 0.000 0.000 0.000 0.000 0.000 1.24 Clear
09/21/2021 03:53 AM 63.32 58.10 54.50 85.82 51.62 72.0 32.46 5.14 E 5.14 E 5.37 E No 0.000 No Precipitation 09/09/2021 01:21 PM 09/09/2021 01:26 PM 0.000 0.000 0.000 0.000 0.000 1.24 Clear
09/21/2021 03:54 AM 63.32 58.10 54.50 85.82 51.62 73.0 32.46 4.92 E 2.68 E 5.37 E No 0.000 No Precipitation 09/09/2021 01:21 PM 09/09/2021 01:26 PM 0.000 0.000 0.000 0.000 0.000 1.24 Clear
09/21/2021 03:55 AM 63.14 57.92 54.32 85.82 51.62 72.0 32.46 4.47 E 4.47 E 5.37 E No 0.000 No Precipitation 09/09/2021 01:21 PM 09/09/2021 01:26 PM 0.000 0.000 0.000 0.000 0.000 1.24 Clear
09/21/2021 03:56 AM 63.32 57.92 54.14 85.82 51.62 72.0 32.46 4.47 E 4.25 E 5.37 E No 0.000 No Precipitation 09/09/2021 01:21 PM 09/09/2021 01:26 PM 0.000 0.000 0.000 0.000 0.000 1.24 Clear
09/21/2021 03:57 AM 63.50 57.92 53.96 85.82 51.62 71.0 32.46 4.25 E 4.92 E 5.37 E No 0.000 No Precipitation 09/09/2021 01:21 PM 09/09/2021 01:26 PM 0.000 0.000 0.000 0.000 0.000 1.24 Clear
09/21/2021 03:58 AM 63.68 57.74 53.78 85.82 51.62 70.0 32.46 4.47 E 5.14 E 5.37 E No 0.000 No Precipitation 09/09/2021 01:21 PM 09/09/2021 01:26 PM 0.000 0.000 0.000 0.000 0.000 1.24 Clear
09/21/2021 03:59 AM 63.68 57.74 53.78 85.82 51.62 70.0 32.46 4.70 E 4.25 E 5.37 E No 0.000 No Precipitation 09/09/2021 01:21 PM 09/09/2021 01:26 PM 0.000 0.000 0.000 0.000 0.000 1.24 Clear
09/21/2021 04:00 AM 63.86 57.74 53.42 85.82 51.62 68.0 32.46 4.03 E 3.13 E 5.37 E No 0.000 No Precipitation 09/09/2021 01:21 PM 09/09/2021 01:26 PM 0.000 0.000 0.000 0.000 0.000 1.24 Clear
09/21/2021 04:01 AM 64.04 57.74 53.60 85.82 51.62 68.0 32.46 3.58 E 3.36 E 5.37 E No 0.000 No Precipitation 09/09/2021 01:21 PM 09/09/2021 01:26 PM 0.000 0.000 0.000 0.000 0.000 1.24 Clear
09/21/2021 04:02 AM 64.22 57.92 53.78 85.82 51.62 69.0 32.46 3.58 E 3.80 E 5.37 E No 0.000 No Precipitation 09/09/2021 01:21 PM 09/09/2021 01:26 PM 0.000 0.000 0.000 0.000 0.000 1.24 Clear
09/21/2021 04:03 AM 64.04 58.28 54.50 85.82 51.62 71.0 32.46 3.36 E 3.13 E 5.14 E No 0.000 No Precipitation 09/09/2021 01:21 PM 09/09/2021 01:26 PM 0.000 0.000 0.000 0.000 0.000 1.24 Clear
09/21/2021 04:04 AM 63.68 58.28 54.68 85.82 51.62 72.0 32.46 3.36 E 3.58 E 5.14 E No 0.000 No Precipitation 09/09/2021 01:21 PM 09/09/2021 01:26 PM 0.000 0.000 0.000 0.000 0.000 1.24 Clear
09/21/2021 04:05 AM 63.32 57.92 54.32 85.82 51.62 72.0 32.46 3.36 E 3.58 E 5.14 E No 0.000 No Precipitation 09/09/2021 01:21 PM 09/09/2021 01:26 PM 0.000 0.000 0.000 0.000 0.000 1.24 Clear
09/21/2021 04:06 AM 63.32 57.92 54.14 85.82 51.62 72.0 32.46 3.36 E 3.36 E 5.14 E No 0.000 No Precipitation 09/09/2021 01:21 PM 09/09/2021 01:26 PM 0.000 0.000 0.000 0.000 0.000 1.24 Clear
09/21/2021 04:07 AM 63.32 57.92 54.14 85.82 51.62 72.0 32.46 2.91 E 2.68 E 5.14 E No 0.000 No Precipitation 09/09/2021 01:21 PM 09/09/2021 01:26 PM 0.000 0.000 0.000 0.000 0.000 1.24 Clear
09/21/2021 04:08 AM 63.32 57.56 53.60 85.82 51.62 70.0 32.46 2.68 E 2.68 E 4.92 E No 0.000 No Precipitation 09/09/2021 01:21 PM 09/09/2021 01:26 PM 0.000 0.000 0.000 0.000 0.000 1.24 Clear
09/21/2021 04:09 AM 63.68 57.74 53.60 85.82 51.62 70.0 32.46 2.68 E 2.68 E 4.47 E No 0.000 No Precipitation 09/09/2021 01:21 PM 09/09/2021 01:26 PM 0.000 0.000 0.000 0.000 0.000 1.24 Clear
09/21/2021 04:10 AM 63.86 57.74 53.60 85.82 51.62 69.0 32.46 2.46 E 2.68 E 4.03 E No 0.000 No Precipitation 09/09/2021 01:21 PM 09/09/2021 01:26 PM 0.000 0.000 0.000 0.000 0.000 1.24 Clear
09/21/2021 04:11 AM 63.86 58.28 54.32 85.82 51.62 71.0 32.46 2.68 E 3.13 E 4.03 E No 0.000 No Precipitation 09/09/2021 01:21 PM 09/09/2021 01:26 PM 0.000 0.000 0.000 0.000 0.000 1.24 Clear
09/21/2021 04:12 AM 63.50 58.28 54.68 85.82 51.62 73.0 32.46 2.91 E 3.36 E 4.03 E No 0.000 No Precipitation 09/09/2021 01:21 PM 09/09/2021 01:26 PM 0.000 0.000 0.000 0.000 0.000 1.24 Clear
09/21/2021 04:13 AM 63.14 58.10 54.68 85.82 51.62 74.0 32.46 3.13 E 3.58 E 4.03 E No 0.000 No Precipitation 09/09/2021 01:21 PM 09/09/2021 01:26 PM 0.000 0.000 0.000 0.000 0.000 1.24 Clear
09/21/2021 04:14 AM 62.78 57.92 54.50 85.82 51.62 74.0 32.46 3.36 E 4.03 E 4.03 E No 0.000 No Precipitation 09/09/2021 01:21 PM 09/09/2021 01:26 PM 0.000 0.000 0.000 0.000 0.000 1.24 Clear
09/21/2021 04:15 AM 62.96 57.56 53.78 85.82 51.62 72.0 32.46 3.80 E 4.03 E 4.47 E No 0.000 No Precipitation 09/09/2021 01:21 PM 09/09/2021 01:26 PM 0.000 0.000 0.000 0.000 0.000 1.24 Clear
09/21/2021 04:16 AM 62.96 57.92 54.32 85.82 51.62 73.0 32.46 4.03 E 4.25 E 4.47 E No 0.000 No Precipitation 09/09/2021 01:21 PM 09/09/2021 01:26 PM 0.000 0.000 0.000 0.000 0.000 1.24 Clear
09/21/2021 04:17 AM 62.96 57.74 54.32 85.82 51.62 73.0 32.46 4.03 E 2.91 E 4.47 E No 0.000 No Precipitation 09/09/2021 01:21 PM 09/09/2021 01:26 PM 0.000 0.000 0.000 0.000 0.000 1.24 Clear
09/21/2021 04:18 AM 63.14 57.56 53.78 85.82 51.62 72.0 32.46 3.36 E 2.68 E 4.47 E No 0.000 No Precipitation 09/09/2021 01:21 PM 09/09/2021 01:26 PM 0.000 0.000 0.000 0.000 0.000 1.24 Clear
09/21/2021 04:19 AM 63.14 57.38 53.42 85.82 51.62 70.0 32.46 2.91 E 2.91 E 4.47 E No 0.000 No Precipitation 09/09/2021 01:21 PM 09/09/2021 01:26 PM 0.000 0.000 0.000 0.000 0.000 1.24 Clear
09/21/2021 04:20 AM 63.14 57.20 53.06 85.82 51.62 69.0 32.46 2.68 E 2.24 E 4.47 E No 0.000 No Precipitation 09/09/2021 01:21 PM 09/09/2021 01:26 PM 0.000 0.000 0.000 0.000 0.000 1.24 Clear
09/21/2021 04:21 AM 62.78 57.38 53.42 85.82 51.62 71.0 32.46 2.46 E 2.24 E 4.47 E No 0.000 No Precipitation 09/09/2021 01:21 PM 09/09/2021 01:26 PM 0.000 0.000 0.000 0.000 0.000 1.24 Clear
09/21/2021 04:22 AM 62.42 57.02 53.24 85.82 51.62 72.0 32.46 2.24 E 2.68 E 4.47 E No 0.000 No Precipitation 09/09/2021 01:21 PM 09/09/2021 01:26 PM 0.000 0.000 0.000 0.000 0.000 1.24 Clear
09/21/2021 04:23 AM 62.06 56.66 52.88 85.82 51.62 71.0 32.46 2.24 E 2.01 E 4.47 E No 0.000 No Precipitation 09/09/2021 01:21 PM 09/09/2021 01:26 PM 0.000 0.000 0.000 0.000 0.000 1.24 Clear
09/21/2021 04:24 AM 62.06 56.66 52.88 85.82 51.62 72.0 32.46 2.24 E 2.24 E 4.47 E No 0.000 No Precipitation 09/09/2021 01:21 PM 09/09/2021 01:26 PM 0.000 0.000 0.000 0.000 0.000 1.24 Clear
09/21/2021 04:25 AM 61.88 56.48 52.70 85.82 51.62 71.0 32.46 2.24 E 2.24 E 4.47 E No 0.000 No Precipitation 09/09/2021 01:21 PM 09/09/2021 01:26 PM 0.000 0.000 0.000 0.000 0.000 1.24 Clear
09/21/2021 04:26 AM 61.88 56.48 52.52 85.82 51.62 71.0 32.46 2.24 E 1.57 E 4.47 E No 0.000 No Precipitation 09/09/2021 01:21 PM 09/09/2021 01:26 PM 0.000 0.000 0.000 0.000 0.000 1.24 Clear
09/21/2021 04:27 AM 61.88 56.48 52.52 85.82 51.62 71.0 32.46 2.24 E 2.24 E 3.58 E No 0.000 No Precipitation 09/09/2021 01:21 PM 09/09/2021 01:26 PM 0.000 0.000 0.000 0.000 0.000 1.24 Clear
09/21/2021 04:28 AM 61.88 56.66 52.70 85.82 51.62 71.0 32.46 2.46 E 2.24 E 3.13 E No 0.000 No Precipitation 09/09/2021 01:21 PM 09/09/2021 01:26 PM 0.000 0.000 0.000 0.000 0.000 1.24 Clear
09/21/2021 04:29 AM 62.06 56.66 52.88 85.82 51.62 72.0 32.46 2.46 E 2.91 E 3.13 E No 0.000 No Precipitation 09/09/2021 01:21 PM 09/09/2021 01:26 PM 0.000 0.000 0.000 0.000 0.000 1.24 Clear
09/21/2021 04:30 AM 62.06 57.02 53.60 85.82 51.62 73.0 32.46 2.46 E 2.24 E 3.13 E No 0.000 No Precipitation 09/09/2021 01:21 PM 09/09/2021 01:26 PM 0.000 0.000 0.000 0.000 0.000 1.24 Clear
09/21/2021 04:31 AM 62.06 57.02 53.60 85.82 51.62 74.0 32.46 2.24 E 2.24 E 3.13 E No 0.000 No Precipitation 09/09/2021 01:21 PM 09/09/2021 01:26 PM 0.000 0.000 0.000 0.000 0.000 1.24 Clear
09/21/2021 04:32 AM 61.88 57.02 53.42 85.82 51.62 73.0 32.46 2.01 E 2.01 E 3.13 E No 0.000 No Precipitation 09/09/2021 01:21 PM 09/09/2021 01:26 PM 0.000 0.000 0.000 0.000 0.000 1.24 Clear
09/21/2021 04:33 AM 61.70 56.84 53.42 85.82 51.62 74.0 32.46 2.24 E 2.46 E 3.13 E No 0.000 No Precipitation 09/09/2021 01:21 PM 09/09/2021 01:26 PM 0.000 0.000 0.000 0.000 0.000 1.24 Clear
09/21/2021 04:34 AM 61.70 57.02 53.96 85.82 51.62 75.0 32.46 2.46 E 2.24 NE 3.36 E No 0.000 No Precipitation 09/09/2021 01:21 PM 09/09/2021 01:26 PM 0.000 0.000 0.000 0.000 0.000 1.24 Clear
09/21/2021 04:35 AM 61.70 56.66 53.24 85.82 51.62 73.0 32.46 2.91 E 2.91 E 3.36 E No 0.000 No Precipitation 09/09/2021 01:21 PM 09/09/2021 01:26 PM 0.000 0.000 0.000 0.000 0.000 1.24 Clear
09/21/2021 04:36 AM 61.88 56.84 53.24 85.82 51.62 73.0 32.46 2.91 E 2.68 E 3.36 E No 0.000 No Precipitation 09/09/2021 01:21 PM 09/09/2021 01:26 PM 0.000 0.000 0.000 0.000 0.000 1.24 Clear
09/21/2021 04:37 AM 61.88 57.02 53.42 85.82 51.62 73.0 32.46 2.46 E 2.46 E 3.36 E No 0.000 No Precipitation 09/09/2021 01:21 PM 09/09/2021 01:26 PM 0.000 0.000 0.000 0.000 0.000 1.24 Clear
09/21/2021 04:38 AM 62.06 57.02 53.60 85.82 51.62 74.0 32.46 2.46 E 2.91 E 3.36 E No 0.000 No Precipitation 09/09/2021 01:21 PM 09/09/2021 01:26 PM 0.000 0.000 0.000 0.000 0.000 1.24 Clear
09/21/2021 04:39 AM 62.06 57.20 53.78 85.82 51.62 74.0 32.46 2.68 E 3.13 E 3.36 E No 0.000 No Precipitation 09/09/2021 01:21 PM 09/09/2021 01:26 PM 0.000 0.000 0.000 0.000 0.000 1.24 Clear
09/21/2021 04:40 AM 62.06 57.20 53.78 85.82 51.62 74.0 32.46 2.91 E 4.25 E 3.58 E No 0.000 No Precipitation 09/09/2021 01:21 PM 09/09/2021 01:26 PM 0.000 0.000 0.000 0.000 0.000 1.24 Clear
09/21/2021 04:41 AM 61.88 57.20 53.96 85.82 51.62 75.0 32.46 3.58 E 4.70 E 4.70 E No 0.000 No Precipitation 09/09/2021 01:21 PM 09/09/2021 01:26 PM 0.000 0.000 0.000 0.000 0.000 1.24 Clear
09/21/2021 04:42 AM 61.70 57.38 54.32 85.82 51.62 77.0 32.46 3.80 E 2.91 E 4.70 E No 0.000 No Precipitation 09/09/2021 01:21 PM 09/09/2021 01:26 PM 0.000 0.000 0.000 0.000 0.000 1.24 Clear
09/21/2021 04:43 AM 61.52 57.38 54.68 85.82 51.62 78.0 32.46 3.36 E 2.68 E 4.70 E No 0.000 No Precipitation 09/09/2021 01:21 PM 09/09/2021 01:26 PM 0.000 0.000 0.000 0.000 0.000 1.24 Clear
09/21/2021 04:44 AM 61.34 57.20 54.14 85.82 51.62 77.0 32.46 2.68 E 2.01 E 4.70 E No 0.000 No Precipitation 09/09/2021 01:21 PM 09/09/2021 01:26 PM 0.000 0.000 0.000 0.000 0.000 1.24 Clear
09/21/2021 04:45 AM 61.34 57.20 54.14 85.82 51.62 77.0 32.46 2.01 E 1.34 E 4.70 E No 0.000 No Precipitation 09/09/2021 01:21 PM 09/09/2021 01:26 PM 0.000 0.000 0.000 0.000 0.000 1.24 Clear
09/21/2021 04:46 AM 61.34 57.20 54.32 85.82 51.62 78.0 32.46 1.57 E 1.57 E 4.70 E No 0.000 No Precipitation 09/09/2021 01:21 PM 09/09/2021 01:26 PM 0.000 0.000 0.000 0.000 0.000 1.24 Clear
09/21/2021 04:47 AM 61.16 57.20 54.50 85.82 51.62 78.0 32.46 1.34 E 1.12 E 4.70 E No 0.000 No Precipitation 09/09/2021 01:21 PM 09/09/2021 01:26 PM 0.000 0.000 0.000 0.000 0.000 1.24 Clear
09/21/2021 04:48 AM 61.16 57.20 54.68 85.82 51.62 79.0 32.46 1.34 E 0.89 E 4.70 E No 0.000 No Precipitation 09/09/2021 01:21 PM 09/09/2021 01:26 PM 0.000 0.000 0.000 0.000 0.000 1.24 Clear
09/21/2021 04:49 AM 60.98 57.20 54.50 85.82 51.62 79.0 32.46 1.34 E 1.12 E 4.70 E No 0.000 No Precipitation 09/09/2021 01:21 PM 09/09/2021 01:26 PM 0.000 0.000 0.000 0.000 0.000 1.24 Clear
09/21/2021 04:50 AM 60.98 57.20 54.50 85.82 51.62 79.0 32.46 1.12 E 0.89 E 4.70 E No 0.000 No Precipitation 09/09/2021 01:21 PM 09/09/2021 01:26 PM 0.000 0.000 0.000 0.000 0.000 1.24 Clear
09/21/2021 04:51 AM 60.80 57.20 54.68 85.82 51.62 80.0 32.46 1.12 E 1.12 SE 4.47 E No 0.000 No Precipitation 09/09/2021 01:21 PM 09/09/2021 01:26 PM 0.000 0.000 0.000 0.000 0.000 1.24 Clear
09/21/2021 04:52 AM 60.80 57.56 55.40 85.82 51.62 82.0 32.46 0.89 SE 0.89 SE 3.36 E No 0.000 No Precipitation 09/09/2021 01:21 PM 09/09/2021 01:26 PM 0.000 0.000 0.000 0.000 0.000 1.24 Clear
09/21/2021 04:53 AM 60.62 57.20 54.68 85.82 51.62 81.0 32.46 1.12 SE 1.12 E 2.46 E No 0.000 No Precipitation 09/09/2021 01:21 PM 09/09/2021 01:26 PM 0.000 0.000 0.000 0.000 0.000 1.24 Clear
09/21/2021 04:54 AM 60.44 57.74 55.76 85.82 51.62 84.0 32.46 1.12 E 0.67 E 2.01 E No 0.000 No Precipitation 09/09/2021 01:21 PM 09/09/2021 01:26 PM 0.000 0.000 0.000 0.000 0.000 1.24 Clear
09/21/2021 04:55 AM 60.26 57.38 55.40 85.82 51.62 84.0 32.46 0.89 E 0.67 E 1.57 E No 0.000 No Precipitation 09/09/2021 01:21 PM 09/09/2021 01:26 PM 0.000 0.000 0.000 0.000 0.000 1.24 Clear
09/21/2021 04:56 AM 59.90 56.12 53.42 85.82 51.62 78.0 32.46 0.67 E 0.89 NE 1.57 E No 0.000 No Precipitation 09/09/2021 01:21 PM 09/09/2021 01:26 PM 0.000 0.000 0.000 0.000 0.000 1.24 Clear
09/21/2021 04:57 AM 59.90 56.48 54.14 85.82 51.62 81.0 32.46 0.89 NE 1.12 E 1.57 E No 0.000 No Precipitation 09/09/2021 01:21 PM 09/09/2021 01:26 PM 0.000 0.000 0.000 0.000 0.000 1.24 Clear
09/21/2021 04:58 AM 59.90 57.02 55.04 85.82 51.62 84.0 32.46 0.89 NE 0.45 E 1.57 E No 0.000 No Precipitation 09/09/2021 01:21 PM 09/09/2021 01:26 PM 0.000 0.000 0.000 0.000 0.000 1.24 Clear
09/21/2021 04:59 AM 59.90 57.02 54.86 85.82 51.62 83.0 32.46 0.67 NE 0.89 SE 1.57 E No 0.000 No Precipitation 09/09/2021 01:21 PM 09/09/2021 01:26 PM 0.000 0.000 0.000 0.000 0.000 1.24 Clear
09/21/2021 05:00 AM 60.26 57.20 54.86 85.82 51.62 82.0 32.46 0.89 S 0.89 SE 1.57 E No 0.000 No Precipitation 09/09/2021 01:21 PM 09/09/2021 01:26 PM 0.000 0.000 0.000 0.000 0.000 1.24 Clear
09/21/2021 05:01 AM 60.62 57.20 54.86 85.82 51.62 81.0 32.46 0.89 SE 0.89 SE 1.57 E No 0.000 No Precipitation 09/09/2021 01:21 PM 09/09/2021 01:26 PM 0.000 0.000 0.000 0.000 0.000 1.24 Clear
09/21/2021 05:02 AM 60.80 57.38 55.04 85.82 51.62 81.0 32.46 0.89 SE 1.12 SE 1.57 E No 0.000 No Precipitation 09/09/2021 01:21 PM 09/09/2021 01:26 PM 0.000 0.000 0.000 0.000 0.000 1.24 Clear
09/21/2021 05:03 AM 60.80 57.20 54.68 85.82 51.62 80.0 32.46 0.89 SE 0.67 E 1.34 SE No 0.000 No Precipitation 09/09/2021 01:21 PM 09/09/2021 01:26 PM 0.000 0.000 0.000 0.000 0.000 1.24 Clear
09/21/2021 05:04 AM 60.80 57.38 54.86 85.82 51.62 81.0 32.46 0.67 E 0.89 NE 1.34 SE No 0.000 No Precipitation 09/09/2021 01:21 PM 09/09/2021 01:26 PM 0.000 0.000 0.000 0.000 0.000 1.24 Clear
09/21/2021 05:05 AM 60.80 57.20 54.68 85.82 51.62 80.0 32.46 0.89 NE 1.12 NE 1.34 SE No 0.000 No Precipitation 09/09/2021 01:21 PM 09/09/2021 01:26 PM 0.000 0.000 0.000 0.000 0.000 1.24 Clear
09/21/2021 05:06 AM 60.80 57.02 54.32 85.82 51.62 79.0 32.46 1.12 NE 1.34 NE 1.57 NE No 0.000 No Precipitation 09/09/2021 01:21 PM 09/09/2021 01:26 PM 0.000 0.000 0.000 0.000 0.000 1.24 Clear
09/21/2021 05:07 AM 60.98 56.84 53.96 85.82 51.62 77.0 32.46 2.01 NE 2.91 E 4.47 E No 0.000 No Precipitation 09/09/2021 01:21 PM 09/09/2021 01:26 PM 0.000 0.000 0.000 0.000 0.000 1.24 Clear
09/21/2021 05:09 AM 62.24 57.20 53.78 85.82 51.62 74.0 32.46 2.24 E 2.24 SE 4.47 E No 0.000 No Precipitation 09/09/2021 01:21 PM 09/09/2021 01:26 PM 0.000 0.000 0.000 0.000 0.000 1.24 Clear
09/21/2021 05:10 AM 62.60 57.56 53.96 85.82 51.62 73.0 32.46 2.01 E 1.57 SE 4.47 E No 0.000 No Precipitation 09/09/2021 01:21 PM 09/09/2021 01:26 PM 0.000 0.000 0.000 0.000 0.000 1.24 Clear
09/21/2021 05:11 AM 62.42 57.38 53.96 85.82 51.62 73.0 32.46 1.57 SE 1.57 SE 4.47 E No 0.000 No Precipitation 09/09/2021 01:21 PM 09/09/2021 01:26 PM 0.000 0.000 0.000 0.000 0.000 1.24 Clear
09/21/2021 05:12 AM 62.24 57.38 54.14 85.82 51.62 75.0 32.46 1.57 SE 1.57 SE 4.47 E No 0.000 No Precipitation 09/09/2021 01:21 PM 09/09/2021 01:26 PM 0.000 0.000 0.000 0.000 0.000 1.24 Clear
09/21/2021 05:13 AM 61.70 57.38 54.50 85.82 51.62 77.0 32.46 1.57 SE 1.57 SE 4.47 E No 0.000 No Precipitation 09/09/2021 01:21 PM 09/09/2021 01:26 PM 0.000 0.000 0.000 0.000 0.000 1.24 Clear
09/21/2021 05:14 AM 61.16 57.38 54.86 85.82 51.62 79.0 32.46 1.57 SE 1.79 E 4.47 E No 0.000 No Precipitation 09/09/2021 01:21 PM 09/09/2021 01:26 PM 0.000 0.000 0.000 0.000 0.000 1.24 Clear
09/21/2021 05:15 AM 60.80 57.38 54.86 85.82 51.62 80.0 32.46 1.79 SE 2.01 SE 4.47 E No 0.000 No Precipitation 09/09/2021 01:21 PM 09/09/2021 01:26 PM 0.000 0.000 0.000 0.000 0.000 1.24 Clear
09/21/2021 05:16 AM 60.62 57.20 54.86 85.82 51.62 81.0 32.46 2.01 SE 2.01 SE 4.47 E No 0.000 No Precipitation 09/09/2021 01:21 PM 09/09/2021 01:26 PM 0.000 0.000 0.000 0.000 0.000 1.24 Clear
09/21/2021 05:18 AM 60.62 57.56 55.58 85.82 51.62 83.0 32.46 1.57 SE 1.57 SE 2.46 E No 0.000 No Precipitation 09/09/2021 01:21 PM 09/09/2021 01:26 PM 0.000 0.000 0.000 0.000 0.000 1.24 Clear
09/21/2021 05:21 AM 60.26 57.56 55.94 85.82 51.62 85.0 32.46 2.01 SE 2.01 SE 2.24 SE No 0.000 No Precipitation 09/09/2021 01:21 PM 09/09/2021 01:26 PM 0.000 0.000 0.000 0.000 0.000 1.24 Clear
09/21/2021 05:22 AM 60.08 57.56 55.94 85.82 51.62 86.0 32.46 1.79 SE 1.79 SE 2.24 SE No 0.000 No Precipitation 09/09/2021 01:21 PM 09/09/2021 01:26 PM 0.000 0.000 0.000 0.000 0.000 1.24 Clear
09/21/2021 05:23 AM 60.08 57.56 55.76 85.82 51.62 86.0 32.46 1.57 SE 1.34 SE 2.24 SE No 0.000 No Precipitation 09/09/2021 01:21 PM 09/09/2021 01:26 PM 0.000 0.000 0.000 0.000 0.000 1.24 Clear
09/21/2021 05:24 AM 59.90 57.38 55.58 85.82 51.62 85.0 32.46 1.57 SE 1.79 SE 2.24 SE No 0.000 No Precipitation 09/09/2021 01:21 PM 09/09/2021 01:26 PM 0.000 0.000 0.000 0.000 0.000 1.24 Clear
09/21/2021 05:25 AM 60.08 57.38 55.40 85.82 51.62 84.0 32.46 1.79 SE 1.57 SE 2.24 SE No 0.000 No Precipitation 09/09/2021 01:21 PM 09/09/2021 01:26 PM 0.000 0.000 0.000 0.000 0.000 1.24 Clear
09/21/2021 05:26 AM 60.08 57.38 55.58 85.82 51.62 85.0 32.46 1.79 SE 1.79 SE 2.24 SE No 0.000 No Precipitation 09/09/2021 01:21 PM 09/09/2021 01:26 PM 0.000 0.000 0.000 0.000 0.000 1.24 Clear
09/21/2021 05:27 AM 60.08 57.38 55.58 85.82 51.62 85.0 32.46 1.79 SE 2.24 SE 2.24 SE No 0.000 No Precipitation 09/09/2021 01:21 PM 09/09/2021 01:26 PM 0.000 0.000 0.000 0.000 0.000 1.24 Clear
09/21/2021 05:28 AM 60.08 57.38 55.58 85.82 51.62 85.0 32.46 2.24 SE 2.24 SE 2.46 SE No 0.000 No Precipitation 09/09/2021 01:21 PM 09/09/2021 01:26 PM 0.000 0.000 0.000 0.000 0.000 1.24 Clear
09/21/2021 05:29 AM 60.08 57.56 55.76 85.82 51.62 86.0 32.46 2.46 SE 2.46 S 2.91 SE No 0.000 No Precipitation 09/09/2021 01:21 PM 09/09/2021 01:26 PM 0.000 0.000 0.000 0.000 0.000 1.24 Clear
09/21/2021 05:30 AM 59.90 57.56 55.76 85.82 51.62 86.0 32.46 2.46 SE 2.24 SE 2.91 SE No 0.000 No Precipitation 09/09/2021 01:21 PM 09/09/2021 01:26 PM 0.000 0.000 0.000 0.000 0.000 1.24 Clear
09/21/2021 05:31 AM 59.90 57.56 55.94 85.82 51.62 86.0 32.46 2.24 SE 2.24 S 2.91 SE No 0.000 No Precipitation 09/09/2021 01:21 PM 09/09/2021 01:26 PM 0.000 0.000 0.000 0.000 0.000 1.24 Clear
09/21/2021 05:32 AM 59.72 57.56 55.94 85.82 51.62 87.0 32.46 2.24 SE 2.24 S 2.91 SE No 0.000 No Precipitation 09/09/2021 01:21 PM 09/09/2021 01:26 PM 0.000 0.000 0.000 0.000 0.000 1.24 Clear
09/21/2021 05:33 AM 59.72 57.74 56.30 85.82 51.62 88.0 32.46 2.24 S 2.46 S 2.91 SE No 0.000 No Precipitation 09/09/2021 01:21 PM 09/09/2021 01:26 PM 0.000 0.000 0.000 0.000 0.000 1.24 Clear
09/21/2021 05:34 AM 59.72 57.56 56.12 85.82 51.62 88.0 32.46 2.46 S 2.91 SE 2.91 S No 0.000 No Precipitation 09/09/2021 01:21 PM 09/09/2021 01:26 PM 0.000 0.000 0.000 0.000 0.000 1.24 Clear
09/21/2021 05:35 AM 59.54 57.38 55.94 85.82 51.62 87.0 32.46 2.91 S 3.36 S 3.36 S No 0.000 No Precipitation 09/09/2021 01:21 PM 09/09/2021 01:26 PM 0.000 0.000 0.000 0.000 0.000 1.24 Clear
09/21/2021 05:36 AM 59.54 57.20 55.58 85.82 51.62 86.0 32.46 3.36 S 3.80 S 3.80 S No 0.000 No Precipitation 09/09/2021 01:21 PM 09/09/2021 01:26 PM 0.000 0.000 0.000 0.000 0.000 1.24 Clear
09/21/2021 05:37 AM 59.36 57.20 55.58 85.82 51.62 87.0 32.46 3.58 S 3.58 S 3.80 S No 0.000 No Precipitation 09/09/2021 01:21 PM 09/09/2021 01:26 PM 0.000 0.000 0.000 0.000 0.000 1.24 Clear
09/21/2021 05:38 AM 59.36 57.20 55.76 85.82 51.62 88.0 32.46 3.58 S 3.36 SE 3.80 S No 0.000 No Precipitation 09/09/2021 01:21 PM 09/09/2021 01:26 PM 0.000 0.000 0.000 0.000 0.000 1.24 Clear
09/21/2021 05:39 AM 59.18 57.20 55.76 85.82 51.62 88.0 32.46 3.36 SE 2.91 SE 3.80 S No 0.000 No Precipitation 09/09/2021 01:21 PM 09/09/2021 01:26 PM 0.000 0.000 0.000 0.000 0.000 1.24 Clear
09/21/2021 05:40 AM 59.18 57.20 55.94 85.82 51.62 89.0 32.46 3.13 SE 2.91 SE 3.80 S No 0.000 No Precipitation 09/09/2021 01:21 PM 09/09/2021 01:26 PM 0.000 0.000 0.000 0.000 0.000 1.24 Clear
09/21/2021 05:41 AM 59.00 57.20 55.76 85.82 51.62 89.0 32.46 2.91 SE 2.91 SE 3.80 S No 0.000 No Precipitation 09/09/2021 01:21 PM 09/09/2021 01:26 PM 0.000 0.000 0.000 0.000 0.000 1.24 Clear
09/21/2021 05:42 AM 59.00 57.02 55.58 85.82 51.62 89.0 32.46 3.13 SE 3.13 SE 3.80 S No 0.000 No Precipitation 09/09/2021 01:21 PM 09/09/2021 01:26 PM 0.000 0.000 0.000 0.000 0.000 1.24 Clear
09/21/2021 05:43 AM 59.00 57.02 55.76 85.82 51.62 89.0 32.46 3.13 SE 2.91 SE 3.80 S No 0.000 No Precipitation 09/09/2021 01:21 PM 09/09/2021 01:26 PM 0.000 0.000 0.000 0.000 0.000 1.24 Clear
09/21/2021 05:44 AM 58.82 57.02 55.58 85.82 51.62 89.0 32.46 2.91 SE 2.91 SE 3.80 S No 0.000 No Precipitation 09/09/2021 01:21 PM 09/09/2021 01:26 PM 0.000 0.000 0.000 0.000 0.000 1.24 Clear
09/21/2021 05:45 AM 59.00 57.02 55.76 85.82 51.62 89.0 32.46 2.91 SE 2.91 SE 3.80 S No 0.000 No Precipitation 09/09/2021 01:21 PM 09/09/2021 01:26 PM 0.000 0.000 0.000 0.000 0.000 1.24 Clear
09/21/2021 05:46 AM 59.00 57.20 55.76 85.82 51.62 89.0 32.46 3.13 SE 3.58 SE 3.80 S No 0.000 No Precipitation 09/09/2021 01:21 PM 09/09/2021 01:26 PM 0.000 0.000 0.000 0.000 0.000 1.24 Clear
09/21/2021 05:47 AM 59.36 57.20 55.76 85.82 51.62 88.0 32.46 3.36 SE 3.36 SE 3.58 SE No 0.000 No Precipitation 09/09/2021 01:21 PM 09/09/2021 01:26 PM 0.000 0.000 0.000 0.000 0.000 1.24 Clear
09/21/2021 05:48 AM 59.54 57.20 55.76 85.82 51.62 87.0 32.46 3.36 SE 3.36 SE 3.58 SE No 0.000 No Precipitation 09/09/2021 01:21 PM 09/09/2021 01:26 PM 0.000 0.000 0.000 0.000 0.000 1.24 Clear
09/21/2021 05:49 AM 59.90 57.38 55.58 85.82 51.62 85.0 32.46 3.36 SE 3.58 SE 3.58 SE No 0.000 No Precipitation 09/09/2021 01:21 PM 09/09/2021 01:26 PM 0.000 0.000 0.000 0.000 0.000 1.24 Clear
09/21/2021 05:50 AM 60.08 57.38 55.40 85.82 51.62 84.0 32.46 3.36 SE 3.58 SE 3.58 SE No 0.000 No Precipitation 09/09/2021 01:21 PM 09/09/2021 01:26 PM 0.000 0.000 0.000 0.000 0.000 1.24 Clear
09/21/2021 05:51 AM 60.26 57.38 55.22 85.82 51.62 83.0 32.46 3.58 SE 3.58 SE 3.58 SE No 0.000 No Precipitation 09/09/2021 01:21 PM 09/09/2021 01:26 PM 0.000 0.000 0.000 0.000 0.000 1.24 Clear
09/21/2021 05:52 AM 60.62 57.20 54.86 85.82 51.62 81.0 32.46 3.58 SE 3.58 SE 3.58 SE No 0.000 No Precipitation 09/09/2021 01:21 PM 09/09/2021 01:26 PM 0.000 0.000 0.000 0.000 0.000 1.24 Clear
09/21/2021 05:53 AM 60.80 57.20 54.68 85.82 51.62 80.0 32.46 3.58 SE 3.36 SE 3.80 SE No 0.000 No Precipitation 09/09/2021 01:21 PM 09/09/2021 01:26 PM 0.000 0.000 0.000 0.000 0.000 1.24 Clear
09/21/2021 05:54 AM 60.98 57.38 54.86 85.82 51.62 80.0 32.46 3.36 SE 3.13 SE 3.80 SE No 0.000 No Precipitation 09/09/2021 01:21 PM 09/09/2021 01:26 PM 0.000 0.000 0.000 0.000 0.000 1.24 Clear
09/21/2021 05:55 AM 60.98 57.20 54.68 85.82 51.62 80.0 32.46 2.91 SE 2.46 SE 3.80 SE No 0.000 No Precipitation 09/09/2021 01:21 PM 09/09/2021 01:26 PM 0.000 0.000 0.000 0.000 0.000 1.24 Clear
09/21/2021 05:56 AM 60.80 57.20 54.50 85.82 51.62 79.0 32.46 2.46 SE 2.24 E 3.80 SE No 0.000 No Precipitation 09/09/2021 01:21 PM 09/09/2021 01:26 PM 0.000 0.000 0.000 0.000 0.000 1.24 Clear
09/21/2021 05:57 AM 60.80 57.02 54.50 85.82 51.62 79.0 32.46 2.46 SE 2.91 E 3.80 SE No 0.000 No Precipitation 09/09/2021 01:21 PM 09/09/2021 01:26 PM 0.000 0.000 0.000 0.000 0.000 1.24 Clear
09/21/2021 05:58 AM 60.98 57.20 54.50 85.82 51.62 79.0 32.46 2.68 SE 2.91 SE 3.80 SE No 0.000 No Precipitation 09/09/2021 01:21 PM 09/09/2021 01:26 PM 0.000 0.000 0.000 0.000 0.000 1.24 Clear
09/21/2021 05:59 AM 60.98 57.20 54.68 85.82 51.62 79.0 32.46 2.91 SE 3.36 SE 3.80 SE No 0.000 No Precipitation 09/09/2021 01:21 PM 09/09/2021 01:26 PM 0.000 0.000 0.000 0.000 0.000 1.24 Clear
09/21/2021 06:00 AM 60.98 57.20 54.50 85.82 51.62 79.0 32.46 3.13 SE 2.91 SE 3.80 SE No 0.000 No Precipitation 09/09/2021 01:21 PM 09/09/2021 01:26 PM 0.000 0.000 0.000 0.000 0.000 1.24 Clear
09/21/2021 06:01 AM 60.98 57.20 54.68 85.82 51.62 79.0 32.46 3.13 SE 2.91 SE 3.80 SE No 0.000 No Precipitation 09/09/2021 01:21 PM 09/09/2021 01:26 PM 0.000 0.000 0.000 0.000 0.000 1.24 Clear
09/21/2021 06:03 AM 61.16 57.20 54.50 85.82 51.62 79.0 32.46 3.13 SE 3.13 SE 3.36 SE No 0.000 No Precipitation 09/09/2021 01:21 PM 09/09/2021 01:26 PM 0.000 0.000 0.000 0.000 0.000 1.24 Clear
09/21/2021 06:04 AM 60.98 57.38 54.86 85.82 51.62 80.0 32.46 3.13 SE 2.91 SE 3.36 SE No 0.000 No Precipitation 09/09/2021 01:21 PM 09/09/2021 01:26 PM 0.000 0.000 0.000 0.000 0.000 1.24 Clear
09/21/2021 06:05 AM 60.80 57.38 54.86 85.82 51.62 80.0 32.46 2.91 SE 2.91 SE 3.36 SE No 0.000 No Precipitation 09/09/2021 01:21 PM 09/09/2021 01:26 PM 0.000 0.000 0.000 0.000 0.000 1.24 Clear
09/21/2021 06:06 AM 60.62 57.20 54.86 85.82 51.62 81.0 32.46 2.91 SE 3.13 SE 3.36 SE No 0.000 No Precipitation 09/09/2021 01:21 PM 09/09/2021 01:26 PM 0.000 0.000 0.000 0.000 0.000 1.24 Clear
09/21/2021 06:07 AM 60.44 57.20 55.04 85.82 51.62 82.0 32.46 2.91 SE 3.13 SE 3.36 SE No 0.000 No Precipitation 09/09/2021 01:21 PM 09/09/2021 01:26 PM 0.000 0.000 0.000 0.000 0.000 1.24 Clear
09/21/2021 06:08 AM 60.26 57.20 55.04 85.82 51.62 83.0 32.46 3.13 SE 3.58 SE 3.58 SE No 0.000 No Precipitation 09/09/2021 01:21 PM 09/09/2021 01:26 PM 0.000 0.000 0.000 0.000 0.000 1.24 Clear
09/21/2021 06:09 AM 59.90 57.02 55.04 85.82 51.62 84.0 32.46 3.36 SE 3.58 SE 4.03 SE No 0.000 No Precipitation 09/09/2021 01:21 PM 09/09/2021 01:26 PM 0.000 0.000 0.000 0.000 0.000 1.24 Clear
09/21/2021 06:10 AM 59.72 57.02 55.04 85.82 51.62 84.0 32.46 3.58 SE 3.58 SE 4.03 SE No 0.000 No Precipitation 09/09/2021 01:21 PM 09/09/2021 01:26 PM 0.000 0.000 0.000 0.000 0.000 1.24 Clear
09/21/2021 06:11 AM 59.54 57.02 55.22 85.82 51.62 85.0 32.46 3.58 SE 3.58 SE 4.03 SE No 0.000 No Precipitation 09/09/2021 01:21 PM 09/09/2021 01:26 PM 0.000 0.000 0.000 0.000 0.000 1.24 Clear
09/21/2021 06:12 AM 59.54 57.02 55.22 85.82 52.88 85.0 32.46 3.58 SE 3.58 SE 4.03 SE No 0.000 No Precipitation 09/09/2021 01:21 PM 09/09/2021 01:26 PM 0.000 0.000 0.000 0.000 0.000 1.24 Clear
09/21/2021 06:13 AM 59.90 57.02 55.22 85.82 52.88 84.0 32.46 3.58 SE 3.36 SE 4.03 SE No 0.000 No Precipitation 09/09/2021 01:21 PM 09/09/2021 01:26 PM 0.000 0.000 0.000 0.000 0.000 1.24 Clear
09/21/2021 06:14 AM 60.26 57.20 55.04 85.82 52.88 83.0 32.46 3.36 SE 3.13 SE 4.03 SE No 0.000 No Precipitation 09/09/2021 01:21 PM 09/09/2021 01:26 PM 0.000 0.000 0.000 0.000 0.000 1.24 Clear
09/21/2021 06:15 AM 60.26 57.20 55.04 85.82 52.88 83.0 32.46 3.13 SE 3.36 SE 4.03 SE No 0.000 No Precipitation 09/09/2021 01:21 PM 09/09/2021 01:26 PM 0.000 0.000 0.000 0.000 0.000 1.24 Clear
09/21/2021 06:16 AM 60.26 57.02 54.68 85.82 52.88 82.0 32.46 3.36 SE 3.36 SE 4.03 SE No 0.000 No Precipitation 09/09/2021 01:21 PM 09/09/2021 01:26 PM 0.000 0.000 0.000 0.000 0.000 1.24 Clear
09/21/2021 06:17 AM 60.26 57.20 55.04 85.82 52.88 83.0 32.46 3.36 SE 3.36 SE 4.03 SE No 0.000 No Precipitation 09/09/2021 01:21 PM 09/09/2021 01:26 PM 0.000 0.000 0.000 0.000 0.000 1.24 Clear
09/21/2021 06:18 AM 60.26 57.20 54.86 85.82 52.88 82.0 32.46 3.13 SE 2.91 SE 4.03 SE No 0.000 No Precipitation 09/09/2021 01:21 PM 09/09/2021 01:26 PM 0.000 0.000 0.000 0.000 0.000 1.24 Clear
09/21/2021 06:19 AM 60.26 57.02 54.86 85.82 52.88 82.0 32.46 2.91 SE 2.91 SE 3.80 SE No 0.000 No Precipitation 09/09/2021 01:21 PM 09/09/2021 01:26 PM 0.000 0.000 0.000 0.000 0.000 1.24 Clear
09/21/2021 06:20 AM 60.26 56.84 54.68 85.82 52.88 82.0 32.46 2.91 SE 2.68 SE 3.80 SE No 0.000 No Precipitation 09/09/2021 01:21 PM 09/09/2021 01:26 PM 0.000 0.000 0.000 0.000 0.000 1.24 Clear
09/21/2021 06:21 AM 60.26 56.84 54.50 85.82 52.88 81.0 32.46 2.68 SE 2.91 SE 3.80 SE No 0.000 No Precipitation 09/09/2021 01:21 PM 09/09/2021 01:26 PM 0.000 0.000 0.000 0.000 0.000 1.24 Clear
09/21/2021 06:22 AM 60.26 56.84 54.50 85.82 52.88 81.0 32.46 2.91 SE 3.13 SE 3.80 SE No 0.000 No Precipitation 09/09/2021 01:21 PM 09/09/2021 01:26 PM 0.000 0.000 0.000 0.000 0.000 1.24 Clear
09/21/2021 06:23 AM 60.26 57.02 54.68 85.82 52.88 81.0 32.46 3.13 SE 3.36 SE 3.80 SE No 0.000 No Precipitation 09/09/2021 01:21 PM 09/09/2021 01:26 PM 0.000 0.000 0.000 0.000 0.000 1.24 Clear
09/21/2021 06:24 AM 60.26 56.84 54.68 85.82 52.88 82.0 32.46 3.13 SE 3.13 SE 3.80 SE No 0.000 No Precipitation 09/09/2021 01:21 PM 09/09/2021 01:26 PM 0.000 0.000 0.000 0.000 0.000 1.24 Clear
09/21/2021 06:25 AM 60.08 56.48 53.96 85.82 52.88 80.0 32.46 2.91 SE 2.68 SE 3.80 SE No 0.000 No Precipitation 09/09/2021 01:21 PM 09/09/2021 01:26 PM 0.000 0.000 0.000 0.000 0.000 1.24 Clear
09/21/2021 06:26 AM 60.08 56.48 53.78 85.82 52.88 79.0 32.46 2.68 SE 2.46 SE 3.58 SE No 0.000 No Precipitation 09/09/2021 01:21 PM 09/09/2021 01:26 PM 0.000 0.000 0.000 0.000 0.000 1.24 Clear
09/21/2021 06:27 AM 60.08 56.30 53.78 85.82 52.88 79.0 32.46 2.46 SE 2.68 SE 3.58 SE No 0.000 No Precipitation 09/09/2021 01:21 PM 09/09/2021 01:26 PM 0.000 0.000 0.000 0.000 0.000 1.24 Clear
09/21/2021 06:28 AM 60.08 56.48 53.60 85.82 52.88 79.0 32.46 2.68 SE 2.91 SE 3.58 SE No 0.000 No Precipitation 09/09/2021 01:21 PM 09/09/2021 01:26 PM 0.000 0.000 0.000 0.000 0.000 1.24 Clear
09/21/2021 06:29 AM 60.08 56.48 53.96 85.82 52.88 79.0 32.44 2.91 SE 2.91 SE 3.58 SE No 0.000 No Precipitation 09/09/2021 01:21 PM 09/09/2021 01:26 PM 0.000 0.000 0.000 0.000 0.000 1.24 Clear
09/21/2021 06:30 AM 60.26 56.66 53.96 85.82 52.88 80.0 32.46 2.91 SE 2.91 SE 3.58 SE No 0.000 No Precipitation 09/09/2021 01:21 PM 09/09/2021 01:26 PM 0.000 0.000 0.000 0.000 0.000 1.24 Clear
09/21/2021 06:31 AM 60.26 56.84 54.32 85.82 52.88 80.0 32.46 2.91 SE 2.91 SE 3.58 SE No 0.000 No Precipitation 09/09/2021 01:21 PM 09/09/2021 01:26 PM 0.000 0.000 0.000 0.000 0.000 1.24 Clear
09/21/2021 06:32 AM 60.26 56.84 54.50 85.82 52.88 81.0 32.46 2.91 SE 3.36 SE 3.58 SE No 0.000 No Precipitation 09/09/2021 01:21 PM 09/09/2021 01:26 PM 0.000 0.000 0.000 0.000 0.000 1.24 Clear
09/21/2021 06:33 AM 60.44 56.84 54.32 85.82 52.88 80.0 32.46 3.36 SE 3.36 SE 3.58 SE No 0.000 No Precipitation 09/09/2021 01:21 PM 09/09/2021 01:26 PM 0.000 0.000 0.000 0.000 0.000 1.24 Clear
09/21/2021 06:34 AM 60.44 56.84 54.50 85.82 52.88 81.0 32.46 3.36 SE 3.36 SE 3.58 SE No 0.000 No Precipitation 09/09/2021 01:21 PM 09/09/2021 01:26 PM 0.000 0.000 0.000 0.000 0.000 1.24 Clear
09/21/2021 06:35 AM 60.44 56.84 54.50 85.82 52.88 81.0 32.46 3.36 SE 3.58 SE 3.80 SE No 0.000 No Precipitation 09/09/2021 01:21 PM 09/09/2021 01:26 PM 0.000 0.000 0.000 0.000 0.000 1.24 Clear
09/21/2021 06:36 AM 60.26 56.66 53.96 85.82 52.88 79.0 32.46 3.36 SE 3.80 SE 3.80 SE No 0.000 No Precipitation 09/09/2021 01:21 PM 09/09/2021 01:26 PM 0.000 0.000 0.000 0.000 0.000 1.24 Clear
09/21/2021 06:37 AM 60.44 56.48 53.60 85.82 52.88 78.0 32.46 3.58 SE 3.58 SE 4.03 SE No 0.000 No Precipitation 09/09/2021 01:21 PM 09/09/2021 01:26 PM 0.000 0.000 0.000 0.000 0.000 1.24 Clear
09/21/2021 06:38 AM 60.62 56.48 53.60 85.82 52.88 78.0 32.46 3.58 SE 3.13 SE 4.03 SE No 0.000 No Precipitation 09/09/2021 01:21 PM 09/09/2021 01:26 PM 0.000 0.000 0.000 0.000 0.000 1.24 Clear
09/21/2021 06:39 AM 60.62 56.48 53.60 85.82 52.88 77.0 32.46 2.91 SE 2.24 SE 4.03 SE No 0.000 No Precipitation 09/09/2021 01:21 PM 09/09/2021 01:26 PM 0.000 0.000 0.000 0.000 0.000 1.24 Clear
09/21/2021 06:40 AM 60.80 56.48 53.42 85.82 52.88 76.0 32.46 2.46 SE 2.01 SE 4.03 SE No 0.000 No Precipitation 09/09/2021 01:21 PM 09/09/2021 01:26 PM 0.000 0.000 0.000 0.000 0.000 1.24 Clear
09/21/2021 06:41 AM 60.98 56.48 53.42 85.82 52.88 76.0 32.46 2.01 SE 1.79 SE 4.03 SE No 0.000 No Precipitation 09/09/2021 01:21 PM 09/09/2021 01:26 PM 0.000 0.000 0.000 0.000 0.000 1.24 Clear
09/21/2021 06:42 AM 60.98 56.48 53.42 85.82 52.88 76.0 32.46 1.79 SE 1.79 SE 4.03 SE No 0.000 No Precipitation 09/09/2021 01:21 PM 09/09/2021 01:26 PM 0.000 0.000 0.000 0.000 0.000 1.24 Clear
09/21/2021 06:43 AM 60.80 56.48 53.42 85.82 52.88 76.0 32.46 2.01 SE 2.24 SE 4.03 SE No 0.000 No Precipitation 09/09/2021 01:21 PM 09/09/2021 01:26 PM 0.000 0.000 0.000 0.000 0.000 1.24 Clear
09/21/2021 06:44 AM 60.80 56.48 53.42 85.82 52.88 77.0 32.46 2.24 SE 2.24 SE 4.03 SE No 0.000 No Precipitation 09/09/2021 01:21 PM 09/09/2021 01:26 PM 0.000 0.000 0.000 0.000 0.000 1.24 Clear
09/21/2021 06:45 AM 60.80 56.48 53.42 85.82 52.88 77.0 32.46 2.24 SE 2.24 SE 4.03 SE No 0.000 No Precipitation 09/09/2021 01:21 PM 09/09/2021 01:26 PM 0.000 0.000 0.000 0.000 0.000 1.24 Clear
09/21/2021 06:46 AM 60.80 56.48 53.60 85.82 52.88 77.0 32.46 2.01 SE 2.01 SE 4.03 SE No 0.000 No Precipitation 09/09/2021 01:21 PM 09/09/2021 01:26 PM 0.000 0.000 0.000 0.000 0.000 1.24 Clear
09/21/2021 06:47 AM 60.80 56.48 53.42 85.82 52.88 77.0 32.44 2.01 SE 2.24 SE 3.58 SE No 0.000 No Precipitation 09/09/2021 01:21 PM 09/09/2021 01:26 PM 0.000 0.000 0.000 0.000 0.000 1.24 Clear
09/21/2021 06:48 AM 60.80 56.66 53.60 85.82 52.88 77.0 32.46 2.24 SE 2.46 SE 2.91 SE No 0.000 No Precipitation 09/09/2021 01:21 PM 09/09/2021 01:26 PM 0.000 0.000 0.000 0.000 0.000 1.24 Clear
09/21/2021 06:49 AM 60.80 56.66 53.60 85.82 52.88 77.0 32.46 2.24 SE 2.01 E 2.46 SE No 0.000 No Precipitation 09/09/2021 01:21 PM 09/09/2021 01:26 PM 0.000 0.000 0.000 0.000 0.000 1.24 Clear
09/21/2021 06:50 AM 60.80 56.48 53.60 85.82 52.88 77.0 32.46 2.24 SE 2.68 SE 2.68 SE No 0.000 No Precipitation 09/09/2021 01:21 PM 09/09/2021 01:26 PM 0.000 0.000 0.000 0.000 0.000 1.24 Clear
09/21/2021 06:51 AM 60.98 56.48 53.24 85.82 52.88 76.0 32.44 2.46 SE 2.68 E 2.91 E No 0.000 No Precipitation 09/09/2021 01:21 PM 09/09/2021 01:26 PM 0.000 0.000 0.000 0.000 0.000 1.24 Clear
09/21/2021 06:52 AM 61.16 56.48 53.06 85.82 52.88 75.0 32.46 2.46 E 2.46 E 2.91 E No 0.000 No Precipitation 09/09/2021 01:21 PM 09/09/2021 01:26 PM 0.000 0.000 0.000 0.000 0.000 1.24 Clear
09/21/2021 06:53 AM 61.34 56.30 52.70 85.82 52.88 73.0 32.46 2.68 E 3.13 SE 3.13 SE No 0.000 No Precipitation 09/09/2021 01:21 PM 09/09/2021 01:26 PM 0.000 0.000 0.000 0.000 0.000 1.24 Clear
09/21/2021 06:54 AM 61.52 56.30 52.52 85.82 52.88 72.0 32.46 3.13 E 3.36 SE 3.36 SE No 0.000 No Precipitation 09/09/2021 01:21 PM 09/09/2021 01:26 PM 0.000 0.000 0.000 0.000 0.000 1.24 Clear
09/21/2021 06:55 AM 61.70 56.48 52.52 85.82 52.88 72.0 32.46 3.13 SE 3.13 SE 3.36 SE No 0.000 No Precipitation 09/09/2021 01:21 PM 09/09/2021 01:26 PM 0.000 0.000 0.000 0.000 0.000 1.24 Clear
09/21/2021 06:56 AM 61.88 56.66 52.88 85.82 52.88 72.0 32.46 3.13 SE 3.13 SE 3.36 SE No 0.000 No Precipitation 09/09/2021 01:21 PM 09/09/2021 01:26 PM 0.000 0.000 0.000 0.000 0.000 1.24 Clear
09/21/2021 06:57 AM 61.88 56.66 52.88 85.82 52.88 72.0 32.46 3.13 SE 2.91 SE 3.36 SE No 0.000 No Precipitation 09/09/2021 01:21 PM 09/09/2021 01:26 PM 0.000 0.000 0.000 0.000 0.000 1.24 Clear
09/21/2021 06:58 AM 61.70 56.48 52.70 85.82 52.88 72.0 32.46 2.91 SE 2.46 SE 3.36 SE No 0.000 No Precipitation 09/09/2021 01:21 PM 09/09/2021 01:26 PM 0.000 0.000 0.000 0.000 0.000 1.24 Clear
09/21/2021 06:59 AM 61.52 56.30 52.52 85.82 52.88 72.0 32.46 2.46 SE 2.46 SE 3.36 SE No 0.000 No Precipitation 09/09/2021 01:21 PM 09/09/2021 01:26 PM 0.000 0.000 0.000 0.000 0.000 1.24 Clear
09/21/2021 07:00 AM 61.52 56.48 52.88 85.82 52.88 73.0 32.46 2.46 E 2.91 E 3.36 SE No 0.000 No Precipitation 09/09/2021 01:21 PM 09/09/2021 01:26 PM 0.000 0.000 0.000 0.000 0.000 1.24 Clear
09/21/2021 07:01 AM 61.34 56.30 52.70 85.82 52.88 73.0 32.46 2.91 E 3.36 E 3.36 SE No 0.000 No Precipitation 09/09/2021 01:21 PM 09/09/2021 01:26 PM 0.000 0.000 0.000 0.000 0.000 1.24 Clear
09/21/2021 07:02 AM 61.16 56.30 52.70 85.82 52.88 73.0 32.46 3.36 E 3.58 E 3.80 E No 0.000 No Precipitation 09/09/2021 01:21 PM 09/09/2021 01:26 PM 0.000 0.000 0.000 0.000 0.000 1.24 Clear
09/21/2021 07:03 AM 61.34 56.30 52.70 85.82 52.88 73.0 32.46 3.58 E 3.58 E 3.80 E No 0.000 No Precipitation 09/09/2021 01:21 PM 09/09/2021 01:26 PM 0.000 0.000 0.000 0.000 0.000 1.24 Clear
09/21/2021 07:04 AM 61.34 56.30 52.70 85.82 52.88 73.0 32.46 3.58 E 3.80 E 4.03 E No 0.000 No Precipitation 09/09/2021 01:21 PM 09/09/2021 01:26 PM 0.000 0.000 0.000 0.000 0.000 1.24 Clear
09/21/2021 07:05 AM 61.52 56.30 52.52 85.82 52.88 72.0 32.46 3.80 E 4.03 SE 4.25 SE No 0.000 No Precipitation 09/09/2021 01:21 PM 09/09/2021 01:26 PM 0.000 0.000 0.000 0.000 0.000 1.24 Clear
09/21/2021 07:06 AM 61.70 56.30 52.52 85.82 52.88 72.0 32.46 4.03 SE 4.03 SE 4.25 E No 0.000 No Precipitation 09/09/2021 01:21 PM 09/09/2021 01:26 PM 0.000 0.000 0.000 0.000 0.000 1.24 Clear
09/21/2021 07:07 AM 61.88 56.48 52.52 85.82 52.88 71.0 32.46 4.03 SE 4.25 E 4.25 SE No 0.000 No Precipitation 09/09/2021 01:21 PM 09/09/2021 01:26 PM 0.000 0.000 0.000 0.000 0.000 1.24 Clear
09/21/2021 07:08 AM 62.06 56.66 52.70 85.82 52.88 71.0 32.46 4.03 SE 4.03 E 4.47 E No 0.000 No Precipitation 09/09/2021 01:21 PM 09/09/2021 01:26 PM 0.000 0.000 0.000 0.000 0.000 1.24 Clear
09/21/2021 07:09 AM 62.06 56.66 52.88 85.82 52.88 71.0 32.46 4.25 E 4.70 SE 4.92 SE No 0.000 No Precipitation 09/09/2021 01:21 PM 09/09/2021 01:26 PM 0.000 0.000 0.000 0.000 0.000 1.24 Clear
09/21/2021 07:10 AM 61.88 56.66 52.88 85.82 52.88 72.0 32.46 4.70 SE 4.70 SE 5.37 SE No 0.000 No Precipitation 09/09/2021 01:21 PM 09/09/2021 01:26 PM 0.000 0.000 0.000 0.000 0.000 1.24 Clear
09/21/2021 07:11 AM 61.52 56.48 52.70 85.82 52.88 73.0 32.46 4.70 SE 4.47 E 5.37 SE No 0.000 No Precipitation 09/09/2021 01:21 PM 09/09/2021 01:26 PM 0.000 0.000 0.000 0.000 0.000 1.24 Clear
09/21/2021 07:12 AM 61.34 56.48 52.88 85.82 58.82 74.0 32.46 4.47 E 5.14 E 5.37 SE No 0.000 No Precipitation 09/09/2021 01:21 PM 09/09/2021 01:26 PM 0.000 0.000 0.000 0.000 0.000 1.24 Clear
09/21/2021 07:13 AM 61.16 56.30 52.70 85.82 58.82 73.0 32.46 4.70 E 4.70 E 5.37 SE No 0.000 No Precipitation 09/09/2021 01:21 PM 09/09/2021 01:26 PM 0.000 0.000 0.000 0.000 0.000 1.24 Clear
09/21/2021 07:14 AM 60.98 56.12 52.52 85.82 58.82 73.0 32.46 4.70 E 4.47 SE 5.37 SE No 0.000 No Precipitation 09/09/2021 01:21 PM 09/09/2021 01:26 PM 0.000 0.000 0.000 0.000 0.000 1.24 Clear
09/21/2021 07:15 AM 60.80 55.94 52.52 85.82 58.82 74.0 32.46 4.47 SE 4.25 SE 5.37 SE No 0.000 No Precipitation 09/09/2021 01:21 PM 09/09/2021 01:26 PM 0.000 0.000 0.000 0.000 0.000 1.24 Clear
09/21/2021 07:16 AM 60.80 56.30 53.24 85.82 58.82 76.0 32.46 4.47 SE 4.70 SE 5.37 SE No 0.000 No Precipitation 09/09/2021 01:21 PM 09/09/2021 01:26 PM 0.000 0.000 0.000 0.000 0.000 1.24 Clear
09/21/2021 07:17 AM 60.80 56.30 52.88 85.82 58.82 75.0 32.46 4.70 SE 4.92 SE 5.37 SE No 0.000 No Precipitation 09/09/2021 01:21 PM 09/09/2021 01:26 PM 0.000 0.000 0.000 0.000 0.000 1.24 Clear
09/21/2021 07:18 AM 60.98 56.30 52.88 85.82 58.82 74.0 32.46 4.92 SE 4.92 SE 5.37 SE No 0.000 No Precipitation 09/09/2021 01:21 PM 09/09/2021 01:26 PM 0.000 0.000 0.000 0.000 0.000 1.24 Clear
09/21/2021 07:19 AM 61.34 56.30 52.52 85.82 58.82 73.0 32.46 4.47 SE 4.25 SE 5.37 SE No 0.000 No Precipitation 09/09/2021 01:21 PM 09/09/2021 01:26 PM 0.000 0.000 0.000 0.000 0.000 1.24 Clear
09/21/2021 07:20 AM 61.52 56.30 52.52 85.82 58.82 72.0 32.46 4.25 SE 4.03 SE 5.37 E No 0.000 No Precipitation 09/09/2021 01:21 PM 09/09/2021 01:26 PM 0.000 0.000 0.000 0.000 0.000 1.24 Clear
09/21/2021 07:21 AM 61.52 56.12 52.34 85.82 58.82 72.0 32.46 4.25 SE 4.25 SE 5.37 E No 0.000 No Precipitation 09/09/2021 01:21 PM 09/09/2021 01:26 PM 0.000 0.000 0.000 0.000 0.000 1.24 Clear
09/21/2021 07:22 AM 61.52 56.30 52.52 85.82 58.82 72.0 32.46 4.25 SE 4.03 SE 5.37 E No 0.000 No Precipitation 09/09/2021 01:21 PM 09/09/2021 01:26 PM 0.000 0.000 0.000 0.000 0.000 1.24 Clear
09/21/2021 07:23 AM 61.34 55.94 51.98 85.82 58.82 71.0 32.46 4.25 SE 4.03 SE 5.14 SE No 0.000 No Precipitation 09/09/2021 01:21 PM 09/09/2021 01:26 PM 0.000 0.000 0.000 0.000 0.000 1.24 Clear
09/21/2021 07:24 AM 61.52 56.30 52.52 85.82 58.82 72.0 32.46 4.47 SE 4.25 SE 5.14 SE No 0.000 No Precipitation 09/09/2021 01:21 PM 09/09/2021 01:26 PM 0.000 0.000 0.000 0.000 0.000 1.24 Clear
09/21/2021 07:25 AM 61.34 56.12 52.16 85.82 58.82 71.0 32.46 4.47 SE 3.58 SE 5.14 SE No 0.000 No Precipitation 09/09/2021 01:21 PM 09/09/2021 01:26 PM 0.000 0.000 0.000 0.000 0.000 1.24 Clear
09/21/2021 07:26 AM 61.34 56.12 52.34 85.82 58.82 72.0 32.46 4.25 SE 4.47 SE 5.14 SE No 0.000 No Precipitation 09/09/2021 01:21 PM 09/09/2021 01:26 PM 0.000 0.000 0.000 0.000 0.000 1.24 Clear
09/21/2021 07:27 AM 61.34 56.12 52.52 85.82 58.82 72.0 32.46 4.47 SE 4.47 SE 5.14 SE No 0.000 No Precipitation 09/09/2021 01:21 PM 09/09/2021 01:26 PM 0.000 0.000 0.000 0.000 0.000 1.24 Clear
09/21/2021 07:28 AM 61.34 56.30 52.52 85.82 58.82 73.0 32.46 4.47 SE 4.47 SE 5.14 SE No 0.000 No Precipitation 09/09/2021 01:21 PM 09/09/2021 01:26 PM 0.000 0.000 0.000 0.000 0.000 1.24 Clear
09/21/2021 07:29 AM 61.34 56.30 52.52 85.82 58.82 72.0 32.46 4.70 SE 4.70 SE 5.14 SE No 0.000 No Precipitation 09/09/2021 01:21 PM 09/09/2021 01:26 PM 0.000 0.000 0.000 0.000 0.000 1.24 Clear
09/21/2021 07:30 AM 61.52 56.30 52.70 85.82 58.82 72.0 32.46 4.70 SE 4.25 SE 5.14 SE No 0.000 No Precipitation 09/09/2021 01:21 PM 09/09/2021 01:26 PM 0.000 0.000 0.000 0.000 0.000 1.24 Clear
09/21/2021 07:31 AM 61.70 56.48 52.52 85.82 58.82 72.0 32.46 4.25 SE 4.03 SE 5.14 SE No 0.000 No Precipitation 09/09/2021 01:21 PM 09/09/2021 01:26 PM 0.000 0.000 0.000 0.000 0.000 1.24 Clear
09/21/2021 07:32 AM 61.70 56.48 52.52 85.82 58.82 71.0 32.46 4.03 SE 3.58 SE 5.14 SE No 0.000 No Precipitation 09/09/2021 01:21 PM 09/09/2021 01:26 PM 0.000 0.000 0.000 0.000 0.000 1.24 Clear
09/21/2021 07:33 AM 61.88 56.48 52.52 85.82 58.82 71.0 32.46 3.80 SE 3.36 SE 5.14 SE No 0.000 No Precipitation 09/09/2021 01:21 PM 09/09/2021 01:26 PM 0.000 0.000 0.000 0.000 0.000 1.24 Clear
09/21/2021 07:34 AM 61.70 56.30 52.52 85.82 58.82 71.0 32.46 3.80 SE 4.47 SE 4.92 SE No 0.000 No Precipitation 09/09/2021 01:21 PM 09/09/2021 01:26 PM 0.000 0.000 0.000 0.000 0.000 1.24 Clear
09/21/2021 07:35 AM 61.70 56.30 52.34 85.82 58.82 71.0 32.44 4.25 SE 4.47 SE 4.92 SE No 0.000 No Precipitation 09/09/2021 01:21 PM 09/09/2021 01:26 PM 0.000 0.000 0.000 0.000 0.000 1.24 Clear
09/21/2021 07:36 AM 61.70 56.30 52.34 85.82 58.82 71.0 32.46 4.47 SE 4.47 SE 4.92 SE No 0.000 No Precipitation 09/09/2021 01:21 PM 09/09/2021 01:26 PM 0.000 0.000 0.000 0.000 0.000 1.24 Clear
09/21/2021 07:37 AM 61.70 56.30 52.34 85.82 58.82 71.0 32.46 4.47 SE 4.03 SE 4.92 SE No 0.000 No Precipitation 09/09/2021 01:21 PM 09/09/2021 01:26 PM 0.000 0.000 0.000 0.000 0.000 1.24 Clear
09/21/2021 07:38 AM 61.70 56.30 52.34 85.82 58.82 71.0 32.46 4.25 SE 4.25 SE 4.92 SE No 0.000 No Precipitation 09/09/2021 01:21 PM 09/09/2021 01:26 PM 0.000 0.000 0.000 0.000 0.000 1.24 Clear
09/21/2021 07:39 AM 61.52 56.12 52.34 85.82 58.82 71.0 32.46 4.03 SE 4.25 SE 4.70 SE No 0.000 No Precipitation 09/09/2021 01:21 PM 09/09/2021 01:26 PM 0.000 0.000 0.000 0.000 0.000 1.24 Clear
09/21/2021 07:40 AM 61.52 56.30 52.70 85.82 58.82 72.0 32.46 4.03 SE 4.03 SE 4.70 SE No 0.000 No Precipitation 09/09/2021 01:21 PM 09/09/2021 01:26 PM 0.000 0.000 0.000 0.000 0.000 1.24 Clear
09/21/2021 07:41 AM 61.70 56.30 52.70 85.82 58.82 72.0 32.46 4.03 SE 3.80 SE 4.70 SE No 0.000 No Precipitation 09/09/2021 01:21 PM 09/09/2021 01:26 PM 0.000 0.000 0.000 0.000 0.000 1.24 Clear
09/21/2021 07:42 AM 61.88 56.48 52.70 85.82 58.82 72.0 32.46 3.80 SE 3.80 SE 4.70 SE No 0.000 No Precipitation 09/09/2021 01:21 PM 09/09/2021 01:26 PM 0.000 0.000 0.000 0.000 0.000 1.24 Clear
09/21/2021 07:43 AM 62.06 56.48 52.70 85.82 58.82 71.0 32.46 3.80 SE 3.80 SE 4.70 SE No 0.000 No Precipitation 09/09/2021 01:21 PM 09/09/2021 01:26 PM 0.000 0.000 0.000 0.000 0.000 1.24 Clear
09/21/2021 07:44 AM 62.24 56.66 52.70 85.82 58.82 71.0 32.46 3.80 SE 4.03 SE 4.70 SE No 0.000 No Precipitation 09/09/2021 01:21 PM 09/09/2021 01:26 PM 0.000 0.000 0.000 0.000 0.000 1.24 Clear
09/21/2021 07:45 AM 62.24 56.66 52.88 85.82 58.82 71.0 32.46 4.03 SE 4.03 SE 4.70 SE No 0.000 No Precipitation 09/09/2021 01:21 PM 09/09/2021 01:26 PM 0.000 0.000 0.000 0.000 0.000 1.24 Clear
09/21/2021 07:46 AM 62.24 56.66 52.70 85.82 58.82 71.0 32.46 3.80 SE 3.58 SE 4.70 SE No 0.000 No Precipitation 09/09/2021 01:21 PM 09/09/2021 01:26 PM 0.000 0.000 0.000 0.000 0.000 1.24 Clear
09/21/2021 07:47 AM 62.24 56.66 52.88 85.82 58.82 71.0 32.46 3.58 SE 3.58 SE 4.70 SE No 0.000 No Precipitation 09/09/2021 01:21 PM 09/09/2021 01:26 PM 0.000 0.000 0.000 0.000 0.000 1.24 Clear
09/21/2021 07:48 AM 62.06 56.66 52.70 85.82 58.82 71.0 32.46 3.58 SE 3.58 SE 4.70 SE No 0.000 No Precipitation 09/09/2021 01:21 PM 09/09/2021 01:26 PM 0.000 0.000 0.000 0.000 0.000 1.24 Clear
09/21/2021 07:49 AM 62.24 56.66 52.70 85.82 58.82 71.0 32.46 3.58 SE 3.58 SE 4.70 SE No 0.000 No Precipitation 09/09/2021 01:21 PM 09/09/2021 01:26 PM 0.000 0.000 0.000 0.000 0.000 1.24 Clear
09/21/2021 07:50 AM x 56.66 52.88 85.82 58.82 71.0 32.46 3.58 SE 3.80 SE 4.70 SE No 0.000 No Precipitation 09/09/2021 01:21 PM 09/09/2021 01:26 PM 0.000 0.000 0.000 0.000 0.000 1.24 Clear
09/21/2021 07:51 AM 62.24 56.84 53.06 85.82 58.82 72.0 32.46 3.80 SE 3.80 SE 4.70 SE No 0.000 No Precipitation 09/09/2021 01:21 PM 09/09/2021 01:26 PM 0.000 0.000 0.000 0.000 0.000 1.24 Clear
09/21/2021 07:52 AM 62.24 56.84 53.06 85.82 58.82 72.0 32.46 3.58 SE 3.36 SE 4.70 SE No 0.000 No Precipitation 09/09/2021 01:21 PM 09/09/2021 01:26 PM 0.000 0.000 0.000 0.000 0.000 1.24 Clear
09/21/2021 07:53 AM 62.24 56.84 53.24 85.82 58.82 72.0 32.46 3.36 SE 3.36 SE 4.70 SE No 0.000 No Precipitation 09/09/2021 01:21 PM 09/09/2021 01:26 PM 0.000 0.000 0.000 0.000 0.000 1.24 Clear
09/21/2021 07:54 AM 62.24 56.84 53.06 85.82 58.82 72.0 32.46 3.36 SE 3.36 SE 4.70 SE No 0.000 No Precipitation 09/09/2021 01:21 PM 09/09/2021 01:26 PM 0.000 0.000 0.000 0.000 0.000 1.24 Clear
09/21/2021 07:55 AM 62.24 56.84 53.06 85.82 58.82 72.0 32.46 3.36 SE 3.58 SE 4.25 SE No 0.000 No Precipitation 09/09/2021 01:21 PM 09/09/2021 01:26 PM 0.000 0.000 0.000 0.000 0.000 1.24 Clear
09/21/2021 07:56 AM 62.42 57.02 53.06 85.82 58.82 71.0 32.46 3.58 SE 3.80 SE 4.25 SE No 0.000 No Precipitation 09/09/2021 01:21 PM 09/09/2021 01:26 PM 0.000 0.000 0.000 0.000 0.000 1.24 Clear
09/21/2021 07:57 AM 62.42 57.02 53.24 85.82 58.82 71.0 32.46 3.80 SE 3.80 SE 4.25 SE No 0.000 No Precipitation 09/09/2021 01:21 PM 09/09/2021 01:26 PM 0.000 0.000 0.000 0.000 0.000 1.24 Clear
09/21/2021 07:58 AM 62.60 57.02 53.24 85.82 58.82 71.0 32.46 3.80 SE 4.03 SE 4.25 SE No 0.000 No Precipitation 09/09/2021 01:21 PM 09/09/2021 01:26 PM 0.000 0.000 0.000 0.000 0.000 1.24 Clear
09/21/2021 07:59 AM 62.78 57.02 53.24 85.82 58.82 71.0 32.46 4.03 SE 4.03 SE 4.47 SE No 0.000 No Precipitation 09/09/2021 01:21 PM 09/09/2021 01:26 PM 0.000 0.000 0.000 0.000 0.000 1.24 Clear
09/21/2021 08:00 AM 62.78 57.02 53.06 85.82 58.82 71.0 32.46 3.80 SE 3.58 SE 4.47 SE No 0.000 No Precipitation 09/09/2021 01:21 PM 09/09/2021 01:26 PM 0.000 0.000 0.000 0.000 0.000 1.24 Clear
09/21/2021 08:01 AM 62.78 57.02 53.06 85.82 58.82 70.0 32.46 3.58 SE 3.58 SE 4.47 SE No 0.000 No Precipitation 09/09/2021 01:21 PM 09/09/2021 01:26 PM 0.000 0.000 0.000 0.000 0.000 1.24 Clear
09/21/2021 08:02 AM 62.78 57.02 53.06 85.82 58.82 70.0 32.46 3.36 SE 3.13 SE 4.47 SE No 0.000 No Precipitation 09/09/2021 01:21 PM 09/09/2021 01:26 PM 0.000 0.000 0.000 0.000 0.000 1.24 Clear
09/21/2021 08:03 AM 62.78 57.02 53.06 85.82 58.82 70.0 32.46 3.13 SE 2.91 SE 4.47 SE No 0.000 No Precipitation 09/09/2021 01:21 PM 09/09/2021 01:26 PM 0.000 0.000 0.000 0.000 0.000 1.24 Clear
09/21/2021 08:04 AM 62.78 57.20 53.06 85.82 58.82 70.0 32.46 2.91 SE 2.68 SE 4.47 SE No 0.000 No Precipitation 09/09/2021 01:21 PM 09/09/2021 01:26 PM 0.000 0.000 0.000 0.000 0.000 1.24 Clear
09/21/2021 08:05 AM 62.96 57.20 53.06 85.82 58.82 70.0 32.46 2.91 SE 3.13 SE 4.47 SE No 0.000 No Precipitation 09/09/2021 01:21 PM 09/09/2021 01:26 PM 0.000 0.000 0.000 0.000 0.000 1.24 Clear
09/21/2021 08:06 AM 63.14 57.20 53.06 85.82 58.82 70.0 32.46 3.13 SE 2.46 SE 4.47 SE No 0.000 No Precipitation 09/09/2021 01:21 PM 09/09/2021 01:26 PM 0.000 0.000 0.000 0.000 0.000 1.24 Clear
09/21/2021 08:07 AM 63.32 57.38 53.24 85.82 58.82 69.0 32.46 2.91 SE 2.91 SE 4.47 SE No 0.000 No Precipitation 09/09/2021 01:21 PM 09/09/2021 01:26 PM 0.000 0.000 0.000 0.000 0.000 1.24 Clear
09/21/2021 08:08 AM 63.50 57.38 53.06 85.82 58.82 69.0 32.46 3.13 SE 2.91 SE 4.47 SE No 0.000 No Precipitation 09/09/2021 01:21 PM 09/09/2021 01:26 PM 0.000 0.000 0.000 0.000 0.000 1.24 Clear
09/21/2021 08:09 AM 63.68 57.56 53.24 85.82 58.82 68.0 32.46 3.13 SE 3.36 SE 4.03 SE No 0.000 No Precipitation 09/09/2021 01:21 PM 09/09/2021 01:26 PM 0.000 0.000 0.000 0.000 0.000 1.24 Clear
09/21/2021 08:10 AM 63.86 57.56 53.06 85.82 58.82 68.0 32.46 3.36 SE 3.80 SE 3.80 SE No 0.000 No Precipitation 09/09/2021 01:21 PM 09/09/2021 01:26 PM 0.000 0.000 0.000 0.000 0.000 1.24 Clear
09/21/2021 08:11 AM 64.04 57.74 53.42 85.82 58.82 68.0 32.46 3.58 SE 3.58 SE 4.03 SE No 0.000 No Precipitation 09/09/2021 01:21 PM 09/09/2021 01:26 PM 0.000 0.000 0.000 0.000 0.000 1.24 Clear
09/21/2021 08:12 AM 64.04 57.74 53.42 85.82 58.82 68.0 32.46 3.80 SE 4.25 SE 4.47 SE No 0.000 No Precipitation 09/09/2021 01:21 PM 09/09/2021 01:26 PM 0.000 0.000 0.000 0.000 0.000 1.24 Clear
09/21/2021 08:13 AM 64.04 57.74 53.24 85.82 58.82 68.0 32.46 4.03 SE 3.36 SE 4.47 SE No 0.000 No Precipitation 09/09/2021 01:21 PM 09/09/2021 01:26 PM 0.000 0.000 0.000 0.000 0.000 1.24 Clear
09/21/2021 08:14 AM 64.22 57.74 53.42 85.82 58.82 68.0 32.46 3.80 SE 3.36 SE 4.47 SE No 0.000 No Precipitation 09/09/2021 01:21 PM 09/09/2021 01:26 PM 0.000 0.000 0.000 0.000 0.000 1.24 Clear
09/21/2021 08:15 AM 64.22 57.74 53.24 85.82 58.82 67.0 32.46 3.36 SE 3.13 SE 4.47 SE No 0.000 No Precipitation 09/09/2021 01:21 PM 09/09/2021 01:26 PM 0.000 0.000 0.000 0.000 0.000 1.24 Clear
09/21/2021 08:16 AM 64.40 57.74 53.24 85.82 58.82 67.0 32.46 2.91 SE 2.46 E 4.47 SE No 0.000 No Precipitation 09/09/2021 01:21 PM 09/09/2021 01:26 PM 0.000 0.000 0.000 0.000 0.000 1.24 Clear
09/21/2021 08:17 AM 64.58 57.92 53.42 85.82 58.82 67.0 32.46 2.91 SE 3.13 SE 4.47 SE No 0.000 No Precipitation 09/09/2021 01:21 PM 09/09/2021 01:26 PM 0.000 0.000 0.000 0.000 0.000 1.24 Clear
09/21/2021 08:18 AM 64.76 57.92 53.42 85.82 58.82 66.0 32.46 2.91 SE 3.36 SE 4.47 SE No 0.000 No Precipitation 09/09/2021 01:21 PM 09/09/2021 01:26 PM 0.000 0.000 0.000 0.000 0.000 1.24 Clear
09/21/2021 08:19 AM 64.76 57.92 53.24 85.82 58.82 66.0 32.46 3.13 SE 3.36 SE 4.47 SE No 0.000 No Precipitation 09/09/2021 01:21 PM 09/09/2021 01:26 PM 0.000 0.000 0.000 0.000 0.000 1.24 Clear
09/21/2021 08:20 AM 64.94 57.92 53.24 85.82 58.82 66.0 32.46 3.13 SE 3.13 SE 4.47 SE No 0.000 No Precipitation 09/09/2021 01:21 PM 09/09/2021 01:26 PM 0.000 0.000 0.000 0.000 0.000 1.24 Clear
09/21/2021 08:21 AM 64.94 58.10 53.42 85.82 58.82 66.0 32.46 2.91 SE 2.46 E 4.47 SE No 0.000 No Precipitation 09/09/2021 01:21 PM 09/09/2021 01:26 PM 0.000 0.000 0.000 0.000 0.000 1.24 Clear
09/21/2021 08:22 AM 65.12 58.10 53.42 85.82 58.82 65.0 32.46 2.68 E 3.36 E 4.47 SE No 0.000 No Precipitation 09/09/2021 01:21 PM 09/09/2021 01:26 PM 0.000 0.000 0.000 0.000 0.000 1.24 Clear
09/21/2021 08:23 AM 65.30 58.28 53.60 85.82 58.82 65.0 32.46 3.13 E 4.03 SE 4.25 SE No 0.000 No Precipitation 09/09/2021 01:21 PM 09/09/2021 01:26 PM 0.000 0.000 0.000 0.000 0.000 1.24 Clear
09/21/2021 08:24 AM 65.48 58.46 53.60 85.82 58.82 65.0 32.46 3.36 E 3.36 SE 4.03 SE No 0.000 No Precipitation 09/09/2021 01:21 PM 09/09/2021 01:26 PM 0.000 0.000 0.000 0.000 0.000 1.24 Clear
09/21/2021 08:25 AM 65.66 58.46 53.60 85.82 58.82 65.0 32.46 3.36 E 3.80 E 4.25 SE No 0.000 No Precipitation 09/09/2021 01:21 PM 09/09/2021 01:26 PM 0.000 0.000 0.000 0.000 0.000 1.24 Clear
09/21/2021 08:26 AM 65.66 58.28 53.42 85.82 58.82 64.0 32.46 3.36 E 3.36 E 4.25 SE No 0.000 No Precipitation 09/09/2021 01:21 PM 09/09/2021 01:26 PM 0.000 0.000 0.000 0.000 0.000 1.24 Clear
09/21/2021 08:27 AM 65.84 57.92 52.52 85.82 58.82 62.0 32.46 3.58 E 3.80 SE 4.25 E No 0.000 No Precipitation 09/09/2021 01:21 PM 09/09/2021 01:26 PM 0.000 0.000 0.000 0.000 0.000 1.24 Clear
09/21/2021 08:28 AM 65.84 57.92 52.52 85.82 58.82 62.0 32.46 3.80 SE 3.36 SE 4.47 SE No 0.000 No Precipitation 09/09/2021 01:21 PM 09/09/2021 01:26 PM 0.000 0.000 0.000 0.000 0.000 1.24 Clear
09/21/2021 08:29 AM 65.84 58.10 52.52 85.82 58.82 62.0 32.46 3.36 SE 3.36 SE 4.47 SE No 0.000 No Precipitation 09/09/2021 01:21 PM 09/09/2021 01:26 PM 0.000 0.000 0.000 0.000 0.000 1.24 Clear
09/21/2021 08:30 AM 66.02 58.28 52.88 85.82 58.82 62.0 32.46 3.13 SE 3.36 E 4.47 SE No 0.000 No Precipitation 09/09/2021 01:21 PM 09/09/2021 01:26 PM 0.000 0.000 0.000 0.000 0.000 1.24 Clear
09/21/2021 08:31 AM 66.20 58.28 53.06 85.82 58.82 61.0 32.46 3.36 E 4.03 E 4.92 E No 0.000 No Precipitation 09/09/2021 01:21 PM 09/09/2021 01:26 PM 0.000 0.000 0.000 0.000 0.000 1.24 Clear
09/21/2021 08:32 AM 66.20 58.28 52.52 85.82 58.82 61.0 32.46 3.58 E 3.80 E 4.92 E No 0.000 No Precipitation 09/09/2021 01:21 PM 09/09/2021 01:26 PM 0.000 0.000 0.000 0.000 0.000 1.24 Clear
09/21/2021 08:33 AM 66.38 58.10 52.34 85.82 58.82 60.0 32.46 3.80 E 4.03 SE 4.92 E No 0.000 No Precipitation 09/09/2021 01:21 PM 09/09/2021 01:26 PM 0.000 0.000 0.000 0.000 0.000 1.24 Clear
09/21/2021 08:34 AM 66.56 58.10 52.16 85.82 58.82 59.0 32.46 3.58 SE 4.25 SE 4.92 E No 0.000 No Precipitation 09/09/2021 01:21 PM 09/09/2021 01:26 PM 0.000 0.000 0.000 0.000 0.000 1.24 Clear
09/21/2021 08:35 AM 66.74 58.10 52.16 85.82 58.82 59.0 32.46 3.58 SE 3.36 SE 4.92 E No 0.000 No Precipitation 09/09/2021 01:21 PM 09/09/2021 01:26 PM 0.000 0.000 0.000 0.000 0.000 1.24 Clear
09/21/2021 08:36 AM 66.74 58.28 52.34 85.82 58.82 60.0 32.46 3.36 SE 3.58 SE 4.92 E No 0.000 No Precipitation 09/09/2021 01:21 PM 09/09/2021 01:26 PM 0.000 0.000 0.000 0.000 0.000 1.24 Clear
09/21/2021 08:37 AM 66.74 58.46 52.70 85.82 58.82 60.0 32.46 3.36 E 4.25 E 4.92 E No 0.000 No Precipitation 09/09/2021 01:21 PM 09/09/2021 01:26 PM 0.000 0.000 0.000 0.000 0.000 1.24 Clear
09/21/2021 08:38 AM 66.92 58.28 52.34 85.82 58.82 59.0 32.46 3.58 E 4.25 E 4.92 E No 0.000 No Precipitation 09/09/2021 01:21 PM 09/09/2021 01:26 PM 0.000 0.000 0.000 0.000 0.000 1.24 Clear
09/21/2021 08:39 AM 66.92 58.46 52.52 85.82 58.82 60.0 32.46 3.80 E 3.80 SE 4.92 E No 0.000 No Precipitation 09/09/2021 01:21 PM 09/09/2021 01:26 PM 0.000 0.000 0.000 0.000 0.000 1.24 Clear
09/21/2021 08:40 AM 66.92 58.46 52.52 85.82 58.82 60.0 32.46 3.80 E 3.80 SE 4.92 E No 0.000 No Precipitation 09/09/2021 01:21 PM 09/09/2021 01:26 PM 0.000 0.000 0.000 0.000 0.000 1.24 Clear
09/21/2021 08:41 AM 66.92 58.46 52.52 85.82 58.82 60.0 32.46 3.58 SE 3.80 SE 4.47 E No 0.000 No Precipitation 09/09/2021 01:21 PM 09/09/2021 01:26 PM 0.000 0.000 0.000 0.000 0.000 1.24 Clear
09/21/2021 08:42 AM 66.74 58.46 52.88 85.82 58.82 61.0 32.46 3.58 SE 3.36 SE 4.47 E No 0.000 No Precipitation 09/09/2021 01:21 PM 09/09/2021 01:26 PM 0.000 0.000 0.000 0.000 0.000 1.24 Clear
09/21/2021 08:43 AM 66.92 58.82 53.24 85.82 58.82 61.0 32.46 3.36 SE 3.13 SE 4.47 E No 0.000 No Precipitation 09/09/2021 01:21 PM 09/09/2021 01:26 PM 0.000 0.000 0.000 0.000 0.000 1.24 Clear
09/21/2021 08:44 AM 67.10 58.64 52.70 85.82 58.82 60.0 32.46 3.13 SE 3.36 SE 4.47 E No 0.000 No Precipitation 09/09/2021 01:21 PM 09/09/2021 01:26 PM 0.000 0.000 0.000 0.000 0.000 1.24 Clear
09/21/2021 08:45 AM 67.10 58.46 52.52 85.82 58.82 59.0 32.46 2.91 SE 1.79 E 4.47 E No 0.000 No Precipitation 09/09/2021 01:21 PM 09/09/2021 01:26 PM 0.000 0.000 0.000 0.000 0.000 1.24 Clear
09/21/2021 08:46 AM 67.10 58.46 52.34 85.82 58.82 59.0 32.46 2.91 E 3.13 SE 4.47 E No 0.000 No Precipitation 09/09/2021 01:21 PM 09/09/2021 01:26 PM 0.000 0.000 0.000 0.000 0.000 1.24 Clear
09/21/2021 08:47 AM 67.28 58.46 52.52 85.82 58.82 59.0 32.46 2.68 SE 2.91 E 4.47 E No 0.000 No Precipitation 09/09/2021 01:21 PM 09/09/2021 01:26 PM 0.000 0.000 0.000 0.000 0.000 1.24 Clear
09/21/2021 08:48 AM 67.28 58.64 52.52 85.82 58.82 59.0 32.46 2.91 SE 3.80 SE 4.47 E No 0.000 No Precipitation 09/09/2021 01:21 PM 09/09/2021 01:26 PM 0.000 0.000 0.000 0.000 0.000 1.24 Clear
09/21/2021 08:49 AM 67.28 58.28 51.98 85.82 58.82 58.0 32.46 3.58 SE 3.80 SE 4.25 SE No 0.000 No Precipitation 09/09/2021 01:21 PM 09/09/2021 01:26 PM 0.000 0.000 0.000 0.000 0.000 1.24 Clear
09/21/2021 08:50 AM 67.28 58.46 52.16 85.82 58.82 58.0 32.46 3.80 SE 4.03 SE 4.25 SE No 0.000 No Precipitation 09/09/2021 01:21 PM 09/09/2021 01:26 PM 0.000 0.000 0.000 0.000 0.000 1.24 Clear
09/21/2021 08:51 AM 67.28 58.46 52.34 85.82 58.82 58.0 32.46 3.80 SE 4.25 SE 4.47 SE No 0.000 No Precipitation 09/09/2021 01:21 PM 09/09/2021 01:26 PM 0.000 0.000 0.000 0.000 0.000 1.24 Clear
09/21/2021 08:52 AM 67.28 58.46 52.52 85.82 58.82 59.0 32.46 3.80 SE 3.80 SE 4.70 SE No 0.000 No Precipitation 09/09/2021 01:21 PM 09/09/2021 01:26 PM 0.000 0.000 0.000 0.000 0.000 1.24 Clear
09/21/2021 08:53 AM 67.28 58.46 52.16 85.82 58.82 58.0 32.46 3.80 SE 3.80 SE 4.70 SE No 0.000 No Precipitation 09/09/2021 01:21 PM 09/09/2021 01:26 PM 0.000 0.000 0.000 0.000 0.000 1.24 Clear
09/21/2021 08:54 AM 67.28 58.46 52.16 85.82 58.82 58.0 32.46 3.58 E 3.36 E 4.70 SE No 0.000 No Precipitation 09/09/2021 01:21 PM 09/09/2021 01:26 PM 0.000 0.000 0.000 0.000 0.000 1.24 Clear
09/21/2021 08:55 AM 67.28 58.64 52.52 85.82 58.82 59.0 32.46 3.13 E 3.58 E 4.70 SE No 0.000 No Precipitation 09/09/2021 01:21 PM 09/09/2021 01:26 PM 0.000 0.000 0.000 0.000 0.000 1.24 Clear
09/21/2021 08:56 AM 67.46 58.64 52.70 85.82 58.82 59.0 32.46 3.36 E 2.91 SE 4.70 SE No 0.000 No Precipitation 09/09/2021 01:21 PM 09/09/2021 01:26 PM 0.000 0.000 0.000 0.000 0.000 1.24 Clear
09/21/2021 08:57 AM 67.46 58.64 52.34 85.82 58.82 58.0 32.46 3.13 SE 3.36 E 4.70 SE No 0.000 No Precipitation 09/09/2021 01:21 PM 09/09/2021 01:26 PM 0.000 0.000 0.000 0.000 0.000 1.24 Clear
09/21/2021 08:58 AM 67.46 58.82 52.70 85.82 58.82 59.0 32.46 3.13 SE 3.36 E 4.70 SE No 0.000 No Precipitation 09/09/2021 01:21 PM 09/09/2021 01:26 PM 0.000 0.000 0.000 0.000 0.000 1.24 Clear
09/21/2021 08:59 AM 67.64 58.64 52.70 85.82 58.82 58.0 32.46 3.36 E 3.13 E 4.70 SE No 0.000 No Precipitation 09/09/2021 01:21 PM 09/09/2021 01:26 PM 0.000 0.000 0.000 0.000 0.000 1.24 Clear
09/21/2021 09:00 AM 67.64 58.82 52.70 85.82 58.82 58.0 32.46 3.13 E 2.24 SE 4.70 SE No 0.000 No Precipitation 09/09/2021 01:21 PM 09/09/2021 01:26 PM 0.000 0.000 0.000 0.000 0.000 1.24 Clear
09/21/2021 09:01 AM 67.82 58.82 52.70 85.82 58.82 58.0 32.46 2.91 E 3.36 SE 4.70 SE No 0.000 No Precipitation 09/09/2021 01:21 PM 09/09/2021 01:26 PM 0.000 0.000 0.000 0.000 0.000 1.24 Clear
09/21/2021 09:02 AM 68.00 58.82 52.52 85.82 58.82 57.0 32.46 2.68 E 2.24 SE 4.03 SE No 0.000 No Precipitation 09/09/2021 01:21 PM 09/09/2021 01:26 PM 0.000 0.000 0.000 0.000 0.000 1.24 Clear
09/21/2021 09:03 AM 68.00 59.00 52.70 85.82 58.82 58.0 32.46 2.91 E 3.13 SE 4.03 SE No 0.000 No Precipitation 09/09/2021 01:21 PM 09/09/2021 01:26 PM 0.000 0.000 0.000 0.000 0.000 1.24 Clear
09/21/2021 09:04 AM 68.18 59.00 52.88 85.82 58.82 58.0 32.46 2.91 SE 2.01 E 4.03 SE No 0.000 No Precipitation 09/09/2021 01:21 PM 09/09/2021 01:26 PM 0.000 0.000 0.000 0.000 0.000 1.24 Clear
09/21/2021 09:05 AM 68.18 59.18 52.88 85.82 58.82 58.0 32.46 2.68 SE 2.24 SE 4.03 SE No 0.000 No Precipitation 09/09/2021 01:21 PM 09/09/2021 01:26 PM 0.000 0.000 0.000 0.000 0.000 1.24 Clear
09/21/2021 09:06 AM 68.18 59.00 52.70 85.82 58.82 57.0 32.46 2.46 SE 3.36 SE 4.03 SE No 0.000 No Precipitation 09/09/2021 01:21 PM 09/09/2021 01:26 PM 0.000 0.000 0.000 0.000 0.000 1.24 Clear
09/21/2021 09:07 AM 68.36 59.00 52.70 85.82 58.82 57.0 32.46 2.91 SE 3.36 SE 4.03 SE No 0.000 No Precipitation 09/09/2021 01:21 PM 09/09/2021 01:26 PM 0.000 0.000 0.000 0.000 0.000 1.24 Clear
09/21/2021 09:08 AM 68.36 59.00 52.70 85.82 58.82 57.0 32.46 3.13 SE 2.91 SE 4.03 SE No 0.000 No Precipitation 09/09/2021 01:21 PM 09/09/2021 01:26 PM 0.000 0.000 0.000 0.000 0.000 1.24 Clear
09/21/2021 09:09 AM 68.36 59.18 52.88 85.82 58.82 57.0 32.46 3.13 SE 2.91 SE 4.03 SE No 0.000 No Precipitation 09/09/2021 01:21 PM 09/09/2021 01:26 PM 0.000 0.000 0.000 0.000 0.000 1.24 Clear
09/21/2021 09:10 AM 68.54 59.18 52.70 85.82 58.82 57.0 32.46 3.13 SE 3.13 SE 4.03 SE No 0.000 No Precipitation 09/09/2021 01:21 PM 09/09/2021 01:26 PM 0.000 0.000 0.000 0.000 0.000 1.24 Clear
09/21/2021 09:11 AM 68.36 59.18 53.06 85.82 58.82 58.0 32.46 3.36 SE 3.13 SE 4.03 SE No 0.000 No Precipitation 09/09/2021 01:21 PM 09/09/2021 01:26 PM 0.000 0.000 0.000 0.000 0.000 1.24 Clear
09/21/2021 09:12 AM 68.54 59.18 53.06 85.82 58.82 58.0 32.46 3.36 SE 3.80 SE 4.03 SE No 0.000 No Precipitation 09/09/2021 01:21 PM 09/09/2021 01:26 PM 0.000 0.000 0.000 0.000 0.000 1.24 Clear
09/21/2021 09:13 AM 68.54 59.18 53.06 85.82 58.82 58.0 32.46 3.36 SE 3.13 SE 4.03 SE No 0.000 No Precipitation 09/09/2021 01:21 PM 09/09/2021 01:26 PM 0.000 0.000 0.000 0.000 0.000 1.24 Clear
09/21/2021 09:14 AM 68.54 59.36 53.42 85.82 58.82 58.0 32.46 2.91 SE 2.91 SE 4.03 SE No 0.000 No Precipitation 09/09/2021 01:21 PM 09/09/2021 01:26 PM 0.000 0.000 0.000 0.000 0.000 1.24 Clear
09/21/2021 09:15 AM 68.54 59.54 53.42 85.82 58.82 58.0 32.46 2.68 SE 3.13 SE 4.03 SE No 0.000 No Precipitation 09/09/2021 01:21 PM 09/09/2021 01:26 PM 0.000 0.000 0.000 0.000 0.000 1.24 Clear
09/21/2021 09:16 AM 68.72 59.54 53.60 85.82 58.82 58.0 32.46 2.91 E 2.01 SE 4.03 SE No 0.000 No Precipitation 09/09/2021 01:21 PM 09/09/2021 01:26 PM 0.000 0.000 0.000 0.000 0.000 1.24 Clear
09/21/2021 09:17 AM 68.72 59.72 53.60 85.82 58.82 58.0 32.46 2.68 SE 2.91 SE 4.03 SE No 0.000 No Precipitation 09/09/2021 01:21 PM 09/09/2021 01:26 PM 0.000 0.000 0.000 0.000 0.000 1.24 Clear
09/21/2021 09:18 AM 68.90 59.72 53.78 85.82 58.82 58.0 32.46 2.24 SE 2.01 SE 4.03 SE No 0.000 No Precipitation 09/09/2021 01:21 PM 09/09/2021 01:26 PM 0.000 0.000 0.000 0.000 0.000 1.24 Clear
09/21/2021 09:19 AM 68.90 59.72 53.60 85.82 58.82 58.0 32.46 2.46 SE 1.12 SE 4.03 SE No 0.000 No Precipitation 09/09/2021 01:21 PM 09/09/2021 01:26 PM 0.000 0.000 0.000 0.000 0.000 1.24 Clear
09/21/2021 09:20 AM 69.08 59.72 53.60 85.82 58.82 58.0 32.46 2.46 SE 2.01 SE 4.03 SE No 0.000 No Precipitation 09/09/2021 01:21 PM 09/09/2021 01:26 PM 0.000 0.000 0.000 0.000 0.000 1.24 Clear
09/21/2021 09:21 AM 69.26 59.72 53.42 85.82 58.82 57.0 32.46 2.24 SE 2.46 SE 4.03 SE No 0.000 No Precipitation 09/09/2021 01:21 PM 09/09/2021 01:26 PM 0.000 0.000 0.000 0.000 0.000 1.24 Clear
09/21/2021 09:22 AM 69.26 59.90 53.60 85.82 58.82 57.0 32.46 2.46 SE 2.91 SE 4.03 SE No 0.000 No Precipitation 09/09/2021 01:21 PM 09/09/2021 01:26 PM 0.000 0.000 0.000 0.000 0.000 1.24 Clear
09/21/2021 09:23 AM 69.26 59.72 53.42 85.82 58.82 56.0 32.46 2.68 SE 2.91 E 3.80 SE No 0.000 No Precipitation 09/09/2021 01:21 PM 09/09/2021 01:26 PM 0.000 0.000 0.000 0.000 0.000 1.24 Clear
09/21/2021 09:24 AM 69.44 59.72 53.42 85.82 58.82 56.0 32.46 2.46 SE 2.46 SE 3.80 SE No 0.000 No Precipitation 09/09/2021 01:21 PM 09/09/2021 01:26 PM 0.000 0.000 0.000 0.000 0.000 1.24 Clear
09/21/2021 09:25 AM 69.44 59.90 53.42 85.82 58.82 56.0 32.46 2.24 E 2.91 E 3.80 SE No 0.000 No Precipitation 09/09/2021 01:21 PM 09/09/2021 01:26 PM 0.000 0.000 0.000 0.000 0.000 1.24 Clear
09/21/2021 09:26 AM 69.62 60.08 53.96 85.82 58.82 57.0 32.46 2.46 E 3.13 E 3.80 SE No 0.000 No Precipitation 09/09/2021 01:21 PM 09/09/2021 01:26 PM 0.000 0.000 0.000 0.000 0.000 1.24 Clear
09/21/2021 09:27 AM 69.80 60.26 53.96 85.82 58.82 57.0 32.46 2.68 E 1.57 NE 3.80 SE No 0.000 No Precipitation 09/09/2021 01:21 PM 09/09/2021 01:26 PM 0.000 0.000 0.000 0.000 0.000 1.24 Clear
09/21/2021 09:28 AM 69.98 60.26 53.78 85.82 58.82 56.0 32.46 2.68 E 3.58 E 3.80 SE No 0.000 No Precipitation 09/09/2021 01:21 PM 09/09/2021 01:26 PM 0.000 0.000 0.000 0.000 0.000 1.24 Clear
09/21/2021 09:29 AM 69.98 60.08 53.60 85.82 58.82 56.0 32.46 2.91 E 3.13 SE 3.80 SE No 0.000 No Precipitation 09/09/2021 01:21 PM 09/09/2021 01:26 PM 0.000 0.000 0.000 0.000 0.000 1.24 Clear
09/21/2021 09:30 AM 69.98 60.26 53.96 85.82 58.82 57.0 32.46 3.13 SE 2.46 E 3.80 SE No 0.000 No Precipitation 09/09/2021 01:21 PM 09/09/2021 01:26 PM 0.000 0.000 0.000 0.000 0.000 1.24 Clear
09/21/2021 09:31 AM 69.98 60.26 53.96 85.82 58.82 57.0 32.46 2.68 SE 2.46 E 3.80 SE No 0.000 No Precipitation 09/09/2021 01:21 PM 09/09/2021 01:26 PM 0.000 0.000 0.000 0.000 0.000 1.24 Clear
09/21/2021 09:32 AM 69.98 60.44 53.96 85.82 58.82 57.0 32.46 2.68 E 3.36 E 3.80 SE No 0.000 No Precipitation 09/09/2021 01:21 PM 09/09/2021 01:26 PM 0.000 0.000 0.000 0.000 0.000 1.24 Clear
09/21/2021 09:33 AM 70.16 60.44 53.96 85.82 58.82 56.0 32.46 2.46 E 2.01 E 3.80 SE No 0.000 No Precipitation 09/09/2021 01:21 PM 09/09/2021 01:26 PM 0.000 0.000 0.000 0.000 0.000 1.24 Clear
09/21/2021 09:34 AM 70.16 60.26 53.78 85.82 58.82 56.0 32.46 2.46 E 2.91 SE 3.80 SE No 0.000 No Precipitation 09/09/2021 01:21 PM 09/09/2021 01:26 PM 0.000 0.000 0.000 0.000 0.000 1.24 Clear
09/21/2021 09:35 AM 70.16 60.44 53.96 85.82 58.82 56.0 32.46 2.68 E 2.46 SE 3.80 SE No 0.000 No Precipitation 09/09/2021 01:21 PM 09/09/2021 01:26 PM 0.000 0.000 0.000 0.000 0.000 1.24 Clear
09/21/2021 09:36 AM 70.34 60.44 53.96 85.82 58.82 56.0 32.46 2.46 SE 3.13 E 3.80 SE No 0.000 No Precipitation 09/09/2021 01:21 PM 09/09/2021 01:26 PM 0.000 0.000 0.000 0.000 0.000 1.24 Clear
09/21/2021 09:37 AM 70.34 60.44 53.96 85.82 58.82 56.0 32.46 2.68 E 2.68 E 3.80 SE No 0.000 No Precipitation 09/09/2021 01:21 PM 09/09/2021 01:26 PM 0.000 0.000 0.000 0.000 0.000 1.24 Clear
09/21/2021 09:38 AM 70.52 60.62 54.14 85.82 58.82 56.0 32.46 2.68 E 2.24 E 3.80 SE No 0.000 No Precipitation 09/09/2021 01:21 PM 09/09/2021 01:26 PM 0.000 0.000 0.000 0.000 0.000 1.24 Clear
09/21/2021 09:39 AM 70.52 60.44 53.96 85.82 58.82 55.0 32.46 2.46 E 2.24 E 3.58 E No 0.000 No Precipitation 09/09/2021 01:21 PM 09/09/2021 01:26 PM 0.000 0.000 0.000 0.000 0.000 1.24 Clear
09/21/2021 09:40 AM 70.70 60.80 54.14 85.82 58.82 55.0 32.46 2.46 SE 2.68 E 3.58 E No 0.000 No Precipitation 09/09/2021 01:21 PM 09/09/2021 01:26 PM 0.000 0.000 0.000 0.000 0.000 1.24 Clear
09/21/2021 09:41 AM 71.06 60.80 53.96 85.82 58.82 55.0 32.46 2.24 SE 2.24 E 3.58 E No 0.000 No Precipitation 09/09/2021 01:21 PM 09/09/2021 01:26 PM 0.000 0.000 0.000 0.000 0.000 1.24 Clear
09/21/2021 09:42 AM 71.24 60.62 53.60 85.82 58.82 53.0 32.46 2.01 E 1.12 E 3.58 E No 0.000 No Precipitation 09/09/2021 01:21 PM 09/09/2021 01:26 PM 0.000 0.000 0.000 0.000 0.000 1.24 Clear
09/21/2021 09:43 AM 71.24 60.62 53.78 85.82 58.82 54.0 32.46 1.57 E 1.34 E 3.58 E No 0.000 No Precipitation 09/09/2021 01:21 PM 09/09/2021 01:26 PM 0.000 0.000 0.000 0.000 0.000 1.24 Clear
09/21/2021 09:44 AM 71.42 60.80 53.78 85.82 58.82 54.0 32.46 1.34 E 2.24 E 3.58 E No 0.000 No Precipitation 09/09/2021 01:21 PM 09/09/2021 01:26 PM 0.000 0.000 0.000 0.000 0.000 1.24 Clear
09/21/2021 09:45 AM 71.60 60.80 53.78 85.82 58.82 53.0 32.46 2.01 E 2.01 E 3.58 E No 0.000 No Precipitation 09/09/2021 01:21 PM